LEU5MP GVNP-SBFN
Flight info
| Callsign | LEU5MP |
|---|---|
| Flight time | 4h 34m |
| Altitude | 30000 |
| Route | ODMEN1N ODMEN DCT ONOBI UB623 UTRAM |
| Aircraft | PC12/L-SDFGRWY/S |
Departure
| Time | 2026-04-26 07:12 |
|---|---|
| Airport | Nelson Mandela International Airport (GVNP) |
Arrival
| Time | 2026-04-26 11:47 |
|---|---|
| Airport | Fernando de Noronha Airport (SBFN) |
| Time | Latitude | Longitude | Altitude | Speed | Heading |
|---|---|---|---|---|---|
| 2026-04-26 06:59 | 14.94486 | -23.48572 | 333 ft | 0 kts | 292° |
| 2026-04-26 07:01 | 14.94486 | -23.48571 | 334 ft | 0 kts | 292° |
| 2026-04-26 07:04 | 14.94485 | -23.48571 | 334 ft | 0 kts | 292° |
| 2026-04-26 07:07 | 14.94485 | -23.48580 | 334 ft | 2 kts | 248° |
| 2026-04-26 07:07 | 14.94479 | -23.48586 | 331 ft | 0 kts | 204° |
| 2026-04-26 07:07 | 14.94474 | -23.48543 | 335 ft | 12 kts | 108° |
| 2026-04-26 07:08 | 14.94379 | -23.48516 | 333 ft | 16 kts | 147° |
| 2026-04-26 07:08 | 14.94359 | -23.48484 | 338 ft | 5 kts | 115° |
| 2026-04-26 07:08 | 14.94358 | -23.48482 | 338 ft | 0 kts | 114° |
| 2026-04-26 07:08 | 14.94349 | -23.48459 | 336 ft | 9 kts | 110° |
| 2026-04-26 07:09 | 14.94265 | -23.48408 | 334 ft | 23 kts | 205° |
| 2026-04-26 07:09 | 14.94069 | -23.48486 | 336 ft | 34 kts | 202° |
| 2026-04-26 07:09 | 14.93825 | -23.48589 | 335 ft | 36 kts | 201° |
| 2026-04-26 07:09 | 14.93590 | -23.48686 | 331 ft | 34 kts | 202° |
| 2026-04-26 07:10 | 14.93320 | -23.48803 | 326 ft | 8 kts | 6° |
| 2026-04-26 07:11 | 14.93401 | -23.48783 | 329 ft | 0 kts | 22° |
| 2026-04-26 07:11 | 14.93400 | -23.48783 | 329 ft | 0 kts | 22° |
| 2026-04-26 07:11 | 14.93417 | -23.48777 | 326 ft | 16 kts | 22° |
| 2026-04-26 07:11 | 14.93713 | -23.48648 | 329 ft | 73 kts | 22° |
| 2026-04-26 07:12 | 14.94292 | -23.48405 | 481 ft | 99 kts | 20° |
| 2026-04-26 07:12 | 14.95008 | -23.48098 | 731 ft | 125 kts | 21° |
| 2026-04-26 07:12 | 14.95857 | -23.47737 | 1163 ft | 135 kts | 21° |
| 2026-04-26 07:12 | 14.96724 | -23.47379 | 1928 ft | 126 kts | 20° |
| 2026-04-26 07:13 | 14.97525 | -23.47055 | 2683 ft | 124 kts | 19° |
| 2026-04-26 07:13 | 14.98389 | -23.46806 | 3171 ft | 136 kts | 351° |
| 2026-04-26 07:13 | 14.99118 | -23.47382 | 3762 ft | 137 kts | 302° |
| 2026-04-26 07:13 | 14.99240 | -23.48342 | 4363 ft | 145 kts | 256° |
| 2026-04-26 07:14 | 14.98601 | -23.49152 | 4963 ft | 151 kts | 219° |
| 2026-04-26 07:14 | 14.97746 | -23.49778 | 5566 ft | 150 kts | 220° |
| 2026-04-26 07:14 | 14.96915 | -23.50420 | 6204 ft | 148 kts | 220° |
| 2026-04-26 07:14 | 14.96084 | -23.51070 | 6789 ft | 149 kts | 220° |
| 2026-04-26 07:15 | 14.95257 | -23.51721 | 7381 ft | 149 kts | 220° |
| 2026-04-26 07:15 | 14.94427 | -23.52369 | 7976 ft | 150 kts | 220° |
| 2026-04-26 07:15 | 14.93600 | -23.53024 | 8589 ft | 150 kts | 219° |
| 2026-04-26 07:15 | 14.92774 | -23.53677 | 9212 ft | 149 kts | 219° |
| 2026-04-26 07:16 | 14.91947 | -23.54328 | 9840 ft | 149 kts | 219° |
| 2026-04-26 07:16 | 14.91129 | -23.54972 | 10393 ft | 150 kts | 219° |
| 2026-04-26 07:16 | 14.90289 | -23.55633 | 10937 ft | 153 kts | 219° |
| 2026-04-26 07:16 | 14.89441 | -23.56301 | 11486 ft | 154 kts | 220° |
| 2026-04-26 07:17 | 14.88582 | -23.56978 | 12028 ft | 156 kts | 220° |
| 2026-04-26 07:17 | 14.87711 | -23.57663 | 12573 ft | 158 kts | 220° |
| 2026-04-26 07:17 | 14.86831 | -23.58356 | 13117 ft | 160 kts | 221° |
| 2026-04-26 07:17 | 14.85940 | -23.59058 | 13663 ft | 162 kts | 221° |
| 2026-04-26 07:18 | 14.85040 | -23.59766 | 14160 ft | 163 kts | 221° |
| 2026-04-26 07:18 | 14.84129 | -23.60483 | 14633 ft | 165 kts | 221° |
| 2026-04-26 07:18 | 14.83209 | -23.61207 | 15104 ft | 167 kts | 221° |
| 2026-04-26 07:18 | 14.82291 | -23.61929 | 15570 ft | 169 kts | 222° |
| 2026-04-26 07:19 | 14.81349 | -23.62670 | 16038 ft | 171 kts | 222° |
| 2026-04-26 07:19 | 14.80400 | -23.63417 | 16510 ft | 172 kts | 222° |
| 2026-04-26 07:19 | 14.79441 | -23.64171 | 16976 ft | 174 kts | 223° |
| 2026-04-26 07:19 | 14.78471 | -23.64934 | 17439 ft | 176 kts | 223° |
| 2026-04-26 07:20 | 14.77491 | -23.65705 | 17899 ft | 178 kts | 223° |
| 2026-04-26 07:20 | 14.76501 | -23.66483 | 18338 ft | 180 kts | 223° |
| 2026-04-26 07:20 | 14.75501 | -23.67269 | 18727 ft | 181 kts | 223° |
| 2026-04-26 07:20 | 14.74491 | -23.68063 | 19119 ft | 183 kts | 223° |
| 2026-04-26 07:21 | 14.73472 | -23.68863 | 19512 ft | 185 kts | 223° |
| 2026-04-26 07:21 | 14.72444 | -23.69672 | 19909 ft | 186 kts | 223° |
| 2026-04-26 07:21 | 14.71385 | -23.70506 | 20098 ft | 201 kts | 223° |
| 2026-04-26 07:21 | 14.70220 | -23.71431 | 20122 ft | 221 kts | 222° |
| 2026-04-26 07:22 | 14.69037 | -23.72349 | 20811 ft | 199 kts | 222° |
| 2026-04-26 07:22 | 14.67958 | -23.73185 | 21403 ft | 193 kts | 223° |
| 2026-04-26 07:22 | 14.66885 | -23.74036 | 21769 ft | 196 kts | 223° |
| 2026-04-26 07:22 | 14.65798 | -23.74892 | 22167 ft | 197 kts | 223° |
| 2026-04-26 07:23 | 14.64712 | -23.75745 | 22551 ft | 200 kts | 223° |
| 2026-04-26 07:23 | 14.63599 | -23.76619 | 22945 ft | 201 kts | 223° |
| 2026-04-26 07:23 | 14.62476 | -23.77499 | 23345 ft | 203 kts | 223° |
| 2026-04-26 07:23 | 14.61353 | -23.78380 | 23733 ft | 203 kts | 223° |
| 2026-04-26 07:24 | 14.60230 | -23.79261 | 24089 ft | 202 kts | 224° |
| 2026-04-26 07:24 | 14.59108 | -23.80141 | 24445 ft | 202 kts | 224° |
| 2026-04-26 07:24 | 14.57988 | -23.81019 | 24804 ft | 202 kts | 224° |
| 2026-04-26 07:24 | 14.56849 | -23.81916 | 25008 ft | 211 kts | 225° |
| 2026-04-26 07:25 | 14.55666 | -23.82851 | 25027 ft | 223 kts | 224° |
| 2026-04-26 07:25 | 14.54375 | -23.83866 | 25035 ft | 242 kts | 224° |
| 2026-04-26 07:25 | 14.52992 | -23.84950 | 25036 ft | 257 kts | 223° |
| 2026-04-26 07:25 | 14.51535 | -23.86089 | 25034 ft | 268 kts | 223° |
| 2026-04-26 07:26 | 14.50030 | -23.87266 | 25031 ft | 275 kts | 223° |
| 2026-04-26 07:26 | 14.48486 | -23.88475 | 25037 ft | 281 kts | 223° |
| 2026-04-26 07:26 | 14.46917 | -23.89704 | 25033 ft | 284 kts | 223° |
| 2026-04-26 07:26 | 14.45335 | -23.90942 | 25033 ft | 287 kts | 223° |
| 2026-04-26 07:27 | 14.43744 | -23.92188 | 25035 ft | 288 kts | 223° |
| 2026-04-26 07:27 | 14.42146 | -23.93439 | 25035 ft | 289 kts | 223° |
| 2026-04-26 07:27 | 14.40541 | -23.94696 | 25034 ft | 289 kts | 223° |
| 2026-04-26 07:27 | 14.38935 | -23.95953 | 25034 ft | 290 kts | 223° |
| 2026-04-26 07:28 | 14.37326 | -23.97212 | 25037 ft | 290 kts | 223° |
| 2026-04-26 07:28 | 14.35715 | -23.98472 | 25035 ft | 290 kts | 223° |
| 2026-04-26 07:28 | 14.34108 | -23.99730 | 25022 ft | 290 kts | 222° |
| 2026-04-26 07:28 | 14.32498 | -24.00989 | 25029 ft | 290 kts | 222° |
| 2026-04-26 07:29 | 14.30887 | -24.02249 | 25028 ft | 290 kts | 222° |
| 2026-04-26 07:29 | 14.29298 | -24.03491 | 25027 ft | 290 kts | 222° |
| 2026-04-26 07:29 | 14.27686 | -24.04751 | 25028 ft | 290 kts | 222° |
| 2026-04-26 07:29 | 14.26078 | -24.06008 | 25027 ft | 290 kts | 222° |
| 2026-04-26 07:30 | 14.24466 | -24.07268 | 25026 ft | 291 kts | 222° |
| 2026-04-26 07:30 | 14.22852 | -24.08529 | 25025 ft | 291 kts | 222° |
| 2026-04-26 07:30 | 14.21238 | -24.09789 | 25026 ft | 291 kts | 222° |
| 2026-04-26 07:30 | 14.19619 | -24.11054 | 25026 ft | 291 kts | 222° |
| 2026-04-26 07:31 | 14.18001 | -24.12317 | 25024 ft | 291 kts | 222° |
| 2026-04-26 07:31 | 14.16384 | -24.13579 | 25027 ft | 291 kts | 222° |
| 2026-04-26 07:31 | 14.14789 | -24.14825 | 25027 ft | 291 kts | 222° |
| 2026-04-26 07:31 | 14.13172 | -24.16087 | 25027 ft | 291 kts | 222° |
| 2026-04-26 07:32 | 14.11555 | -24.17349 | 25028 ft | 292 kts | 222° |
| 2026-04-26 07:32 | 14.09937 | -24.18610 | 25028 ft | 292 kts | 222° |
| 2026-04-26 07:32 | 14.08318 | -24.19874 | 25029 ft | 292 kts | 222° |
| 2026-04-26 07:32 | 14.06697 | -24.21137 | 25030 ft | 292 kts | 222° |
| 2026-04-26 07:33 | 14.05079 | -24.22400 | 25026 ft | 292 kts | 222° |
| 2026-04-26 07:33 | 14.03984 | -24.23253 | 25026 ft | 292 kts | 222° |
| 2026-04-26 07:33 | 14.02362 | -24.24518 | 25028 ft | 292 kts | 222° |
| 2026-04-26 07:33 | 14.00738 | -24.25783 | 25027 ft | 292 kts | 222° |
| 2026-04-26 07:34 | 13.99136 | -24.27032 | 25017 ft | 292 kts | 222° |
| 2026-04-26 07:34 | 13.97515 | -24.28294 | 25017 ft | 293 kts | 221° |
| 2026-04-26 07:34 | 13.95891 | -24.29559 | 25016 ft | 293 kts | 221° |
| 2026-04-26 07:34 | 13.94262 | -24.30828 | 25017 ft | 293 kts | 222° |
| 2026-04-26 07:35 | 13.92634 | -24.32096 | 25018 ft | 293 kts | 221° |
| 2026-04-26 07:35 | 13.91007 | -24.33362 | 25018 ft | 293 kts | 221° |
| 2026-04-26 07:35 | 13.89301 | -24.34532 | 25014 ft | 297 kts | 212° |
| 2026-04-26 07:35 | 13.87419 | -24.35428 | 25015 ft | 298 kts | 209° |
| 2026-04-26 07:36 | 13.85538 | -24.36327 | 25018 ft | 298 kts | 210° |
| 2026-04-26 07:36 | 13.83660 | -24.37233 | 25020 ft | 298 kts | 210° |
| 2026-04-26 07:36 | 13.81776 | -24.38136 | 25020 ft | 298 kts | 209° |
| 2026-04-26 07:36 | 13.79894 | -24.39036 | 25018 ft | 299 kts | 209° |
| 2026-04-26 07:37 | 13.78011 | -24.39936 | 25015 ft | 299 kts | 209° |
| 2026-04-26 07:37 | 13.76148 | -24.40828 | 25014 ft | 299 kts | 209° |
| 2026-04-26 07:37 | 13.74259 | -24.41731 | 25015 ft | 299 kts | 209° |
| 2026-04-26 07:37 | 13.72370 | -24.42635 | 25015 ft | 299 kts | 209° |
| 2026-04-26 07:38 | 13.70480 | -24.43539 | 25018 ft | 299 kts | 209° |
| 2026-04-26 07:38 | 13.68591 | -24.44442 | 25018 ft | 299 kts | 209° |
| 2026-04-26 07:38 | 13.66701 | -24.45345 | 25019 ft | 299 kts | 209° |
| 2026-04-26 07:38 | 13.64812 | -24.46248 | 25019 ft | 300 kts | 209° |
| 2026-04-26 07:39 | 13.62918 | -24.47153 | 25016 ft | 300 kts | 209° |
| 2026-04-26 07:39 | 13.61046 | -24.48048 | 25015 ft | 300 kts | 209° |
| 2026-04-26 07:39 | 13.59152 | -24.48952 | 25015 ft | 300 kts | 209° |
| 2026-04-26 07:39 | 13.57258 | -24.49857 | 25015 ft | 300 kts | 209° |
| 2026-04-26 07:40 | 13.55366 | -24.50761 | 25018 ft | 300 kts | 209° |
| 2026-04-26 07:40 | 13.53473 | -24.51665 | 25016 ft | 300 kts | 209° |
| 2026-04-26 07:40 | 13.51575 | -24.52570 | 25016 ft | 300 kts | 209° |
| 2026-04-26 07:40 | 13.49678 | -24.53476 | 25017 ft | 300 kts | 209° |
| 2026-04-26 07:41 | 13.47800 | -24.54372 | 25018 ft | 300 kts | 209° |
| 2026-04-26 07:41 | 13.45906 | -24.55275 | 25018 ft | 300 kts | 209° |
| 2026-04-26 07:41 | 13.44003 | -24.56183 | 25018 ft | 300 kts | 209° |
| 2026-04-26 07:41 | 13.42108 | -24.57087 | 25018 ft | 300 kts | 209° |
| 2026-04-26 07:42 | 13.40213 | -24.57991 | 25018 ft | 300 kts | 209° |
| 2026-04-26 07:42 | 13.38314 | -24.58896 | 25018 ft | 300 kts | 209° |
| 2026-04-26 07:42 | 13.36421 | -24.59798 | 25018 ft | 300 kts | 209° |
| 2026-04-26 07:42 | 13.34526 | -24.60701 | 25018 ft | 300 kts | 209° |
| 2026-04-26 07:43 | 13.32631 | -24.61605 | 25018 ft | 300 kts | 209° |
| 2026-04-26 07:43 | 13.30734 | -24.62508 | 25019 ft | 300 kts | 209° |
| 2026-04-26 07:43 | 13.28834 | -24.63414 | 25019 ft | 300 kts | 209° |
| 2026-04-26 07:43 | 13.26938 | -24.64316 | 25021 ft | 300 kts | 209° |
| 2026-04-26 07:44 | 13.25043 | -24.65219 | 25021 ft | 300 kts | 209° |
| 2026-04-26 07:44 | 13.23169 | -24.66111 | 25021 ft | 300 kts | 209° |
| 2026-04-26 07:44 | 13.21272 | -24.67014 | 25018 ft | 300 kts | 209° |
| 2026-04-26 07:44 | 13.19376 | -24.67917 | 25018 ft | 300 kts | 209° |
| 2026-04-26 07:45 | 13.17480 | -24.68819 | 25019 ft | 300 kts | 209° |
| 2026-04-26 07:45 | 13.15582 | -24.69722 | 25019 ft | 300 kts | 209° |
| 2026-04-26 07:45 | 13.13681 | -24.70626 | 25016 ft | 300 kts | 209° |
| 2026-04-26 07:45 | 13.11783 | -24.71529 | 25016 ft | 301 kts | 208° |
| 2026-04-26 07:46 | 13.09882 | -24.72433 | 25015 ft | 301 kts | 208° |
| 2026-04-26 07:46 | 13.07983 | -24.73336 | 25015 ft | 301 kts | 208° |
| 2026-04-26 07:46 | 13.06108 | -24.74227 | 25016 ft | 301 kts | 208° |
| 2026-04-26 07:46 | 13.04206 | -24.75132 | 25016 ft | 301 kts | 208° |
| 2026-04-26 07:47 | 13.02308 | -24.76033 | 25016 ft | 301 kts | 208° |
| 2026-04-26 07:47 | 13.00405 | -24.76938 | 25017 ft | 301 kts | 208° |
| 2026-04-26 07:47 | 12.98504 | -24.77840 | 25017 ft | 301 kts | 208° |
| 2026-04-26 07:47 | 12.96602 | -24.78744 | 25017 ft | 301 kts | 208° |
| 2026-04-26 07:48 | 12.94696 | -24.79649 | 25009 ft | 301 kts | 208° |
| 2026-04-26 07:48 | 12.92791 | -24.80554 | 25009 ft | 301 kts | 208° |
| 2026-04-26 07:48 | 12.90889 | -24.81456 | 25009 ft | 302 kts | 208° |
| 2026-04-26 07:48 | 12.88986 | -24.82360 | 25010 ft | 302 kts | 208° |
| 2026-04-26 07:49 | 12.87080 | -24.83264 | 25012 ft | 302 kts | 208° |
| 2026-04-26 07:49 | 12.85198 | -24.84158 | 25012 ft | 302 kts | 208° |
| 2026-04-26 07:49 | 12.83288 | -24.85064 | 25012 ft | 302 kts | 208° |
| 2026-04-26 07:50 | 12.79476 | -24.86871 | 25010 ft | 302 kts | 208° |
| 2026-04-26 07:50 | 12.77569 | -24.87776 | 25009 ft | 302 kts | 208° |
| 2026-04-26 07:50 | 12.75663 | -24.88680 | 25009 ft | 302 kts | 208° |
| 2026-04-26 07:50 | 12.73755 | -24.89584 | 25009 ft | 302 kts | 208° |
| 2026-04-26 07:51 | 12.71845 | -24.90489 | 25010 ft | 302 kts | 208° |
| 2026-04-26 07:51 | 12.69936 | -24.91394 | 25010 ft | 302 kts | 208° |
| 2026-04-26 07:51 | 12.68022 | -24.92300 | 25010 ft | 302 kts | 208° |
| 2026-04-26 07:51 | 12.66115 | -24.93204 | 25010 ft | 302 kts | 208° |
| 2026-04-26 07:52 | 12.64228 | -24.94098 | 25010 ft | 302 kts | 208° |
| 2026-04-26 07:52 | 12.62317 | -24.95003 | 25010 ft | 302 kts | 208° |
| 2026-04-26 07:52 | 12.60408 | -24.95906 | 25005 ft | 302 kts | 208° |
| 2026-04-26 07:52 | 12.58501 | -24.96810 | 25012 ft | 302 kts | 208° |
| 2026-04-26 07:53 | 12.56589 | -24.97714 | 25014 ft | 303 kts | 208° |
| 2026-04-26 07:53 | 12.54676 | -24.98620 | 25014 ft | 303 kts | 208° |
| 2026-04-26 07:53 | 12.52760 | -24.99526 | 25011 ft | 303 kts | 208° |
| 2026-04-26 07:53 | 12.50846 | -25.00431 | 25012 ft | 303 kts | 208° |
| 2026-04-26 07:54 | 12.48931 | -25.01337 | 25012 ft | 303 kts | 208° |
| 2026-04-26 07:54 | 12.47015 | -25.02243 | 25015 ft | 303 kts | 208° |
| 2026-04-26 07:54 | 12.45098 | -25.03150 | 25009 ft | 304 kts | 208° |
| 2026-04-26 07:54 | 12.43179 | -25.04058 | 25009 ft | 304 kts | 208° |
| 2026-04-26 07:55 | 12.41255 | -25.04967 | 25010 ft | 304 kts | 208° |
| 2026-04-26 07:55 | 12.39338 | -25.05873 | 25010 ft | 304 kts | 208° |
| 2026-04-26 07:55 | 12.37418 | -25.06780 | 25010 ft | 304 kts | 208° |
| 2026-04-26 07:55 | 12.35518 | -25.07678 | 25010 ft | 304 kts | 208° |
| 2026-04-26 07:56 | 12.33597 | -25.08585 | 25007 ft | 304 kts | 208° |
| 2026-04-26 07:56 | 12.31677 | -25.09492 | 25007 ft | 304 kts | 208° |
| 2026-04-26 07:56 | 12.29754 | -25.10400 | 25007 ft | 304 kts | 208° |
| 2026-04-26 07:56 | 12.27832 | -25.11307 | 25007 ft | 304 kts | 208° |
| 2026-04-26 07:57 | 12.25913 | -25.12213 | 25004 ft | 304 kts | 207° |
| 2026-04-26 07:57 | 12.23990 | -25.13121 | 25009 ft | 304 kts | 207° |
| 2026-04-26 07:57 | 12.22068 | -25.14029 | 25010 ft | 305 kts | 207° |
| 2026-04-26 07:57 | 12.20140 | -25.14938 | 25010 ft | 305 kts | 207° |
| 2026-04-26 07:58 | 12.18213 | -25.15847 | 25010 ft | 305 kts | 207° |
| 2026-04-26 07:58 | 12.16284 | -25.16757 | 25010 ft | 305 kts | 207° |
| 2026-04-26 07:58 | 12.14354 | -25.17667 | 25011 ft | 305 kts | 207° |
| 2026-04-26 07:58 | 12.12425 | -25.18577 | 25011 ft | 305 kts | 207° |
| 2026-04-26 07:59 | 12.10492 | -25.19488 | 25008 ft | 305 kts | 207° |
| 2026-04-26 07:59 | 12.08564 | -25.20397 | 25008 ft | 305 kts | 207° |
| 2026-04-26 07:59 | 12.06632 | -25.21308 | 25008 ft | 305 kts | 207° |
| 2026-04-26 07:59 | 12.04701 | -25.22218 | 25008 ft | 305 kts | 207° |
| 2026-04-26 08:00 | 12.02774 | -25.23126 | 25008 ft | 305 kts | 207° |
| 2026-04-26 08:00 | 12.00870 | -25.24022 | 25008 ft | 305 kts | 207° |
| 2026-04-26 08:00 | 11.98936 | -25.24933 | 25008 ft | 305 kts | 207° |
| 2026-04-26 08:00 | 11.97004 | -25.25843 | 25008 ft | 305 kts | 207° |
| 2026-04-26 08:01 | 11.95075 | -25.26752 | 25009 ft | 305 kts | 207° |
| 2026-04-26 08:01 | 11.93144 | -25.27661 | 25009 ft | 305 kts | 207° |
| 2026-04-26 08:01 | 11.91210 | -25.28571 | 25004 ft | 305 kts | 206° |
| 2026-04-26 08:01 | 11.89277 | -25.29481 | 25004 ft | 305 kts | 207° |
| 2026-04-26 08:02 | 11.87376 | -25.30375 | 25004 ft | 305 kts | 207° |
| 2026-04-26 08:02 | 11.85448 | -25.31283 | 25005 ft | 305 kts | 207° |
| 2026-04-26 08:02 | 11.83519 | -25.32190 | 25006 ft | 305 kts | 207° |
| 2026-04-26 08:02 | 11.81591 | -25.33097 | 25006 ft | 305 kts | 207° |
| 2026-04-26 08:03 | 11.79660 | -25.34005 | 25006 ft | 306 kts | 207° |
| 2026-04-26 08:03 | 11.77727 | -25.34914 | 25007 ft | 306 kts | 207° |
| 2026-04-26 08:03 | 11.75795 | -25.35822 | 25007 ft | 306 kts | 207° |
| 2026-04-26 08:03 | 11.73863 | -25.36731 | 25007 ft | 305 kts | 207° |
| 2026-04-26 08:04 | 11.71934 | -25.37637 | 25006 ft | 305 kts | 207° |
| 2026-04-26 08:04 | 11.70000 | -25.38546 | 25005 ft | 305 kts | 207° |
| 2026-04-26 08:04 | 11.68068 | -25.39454 | 25005 ft | 305 kts | 207° |
| 2026-04-26 08:04 | 11.66162 | -25.40349 | 25005 ft | 305 kts | 207° |
| 2026-04-26 08:05 | 11.64232 | -25.41256 | 25009 ft | 305 kts | 207° |
| 2026-04-26 08:05 | 11.62303 | -25.42162 | 25009 ft | 305 kts | 207° |
| 2026-04-26 08:05 | 11.60368 | -25.43070 | 25009 ft | 305 kts | 207° |
| 2026-04-26 08:05 | 11.58440 | -25.43975 | 25009 ft | 305 kts | 207° |
| 2026-04-26 08:06 | 11.56512 | -25.44881 | 25008 ft | 305 kts | 206° |
| 2026-04-26 08:06 | 11.54575 | -25.45789 | 25007 ft | 305 kts | 206° |
| 2026-04-26 08:06 | 11.52649 | -25.46693 | 25007 ft | 305 kts | 206° |
| 2026-04-26 08:06 | 11.50723 | -25.47597 | 25007 ft | 305 kts | 206° |
| 2026-04-26 08:07 | 11.48796 | -25.48501 | 25002 ft | 305 kts | 206° |
| 2026-04-26 08:07 | 11.46869 | -25.49405 | 25001 ft | 305 kts | 206° |
| 2026-04-26 08:07 | 11.44942 | -25.50309 | 25001 ft | 305 kts | 206° |
| 2026-04-26 08:07 | 11.43041 | -25.51200 | 25001 ft | 305 kts | 206° |
| 2026-04-26 08:08 | 11.41117 | -25.52102 | 25004 ft | 304 kts | 206° |
| 2026-04-26 08:08 | 11.39190 | -25.53006 | 25004 ft | 305 kts | 206° |
| 2026-04-26 08:08 | 11.37263 | -25.53909 | 25004 ft | 305 kts | 206° |
| 2026-04-26 08:08 | 11.35339 | -25.54810 | 25004 ft | 305 kts | 206° |
| 2026-04-26 08:09 | 11.33411 | -25.55714 | 25004 ft | 305 kts | 206° |
| 2026-04-26 08:09 | 11.31488 | -25.56615 | 25004 ft | 305 kts | 206° |
| 2026-04-26 08:09 | 11.29559 | -25.57518 | 25004 ft | 305 kts | 206° |
| 2026-04-26 08:09 | 11.27636 | -25.58419 | 25004 ft | 305 kts | 206° |
| 2026-04-26 08:10 | 11.25707 | -25.59322 | 25007 ft | 304 kts | 206° |
| 2026-04-26 08:10 | 11.23783 | -25.60223 | 25007 ft | 304 kts | 206° |
| 2026-04-26 08:10 | 11.21851 | -25.61128 | 25004 ft | 305 kts | 206° |
| 2026-04-26 08:10 | 11.19922 | -25.62031 | 25004 ft | 305 kts | 206° |
| 2026-04-26 08:11 | 11.17997 | -25.62932 | 25006 ft | 305 kts | 206° |
| 2026-04-26 08:11 | 11.16070 | -25.63833 | 25007 ft | 304 kts | 206° |
| 2026-04-26 08:11 | 11.14171 | -25.64721 | 25006 ft | 304 kts | 206° |
| 2026-04-26 08:11 | 11.12245 | -25.65623 | 25006 ft | 305 kts | 206° |
| 2026-04-26 08:12 | 11.10313 | -25.66527 | 25006 ft | 305 kts | 206° |
| 2026-04-26 08:12 | 11.08383 | -25.67429 | 25006 ft | 305 kts | 206° |
| 2026-04-26 08:12 | 11.06455 | -25.68331 | 25006 ft | 305 kts | 206° |
| 2026-04-26 08:12 | 11.04525 | -25.69233 | 25006 ft | 305 kts | 206° |
| 2026-04-26 08:13 | 11.02595 | -25.70135 | 25007 ft | 305 kts | 206° |
| 2026-04-26 08:13 | 11.00664 | -25.71038 | 25004 ft | 305 kts | 206° |
| 2026-04-26 08:13 | 10.98737 | -25.71938 | 25005 ft | 305 kts | 206° |
| 2026-04-26 08:13 | 10.96834 | -25.72828 | 25004 ft | 305 kts | 206° |
| 2026-04-26 08:14 | 10.94904 | -25.73729 | 25001 ft | 305 kts | 206° |
| 2026-04-26 08:14 | 10.92976 | -25.74630 | 25002 ft | 305 kts | 206° |
| 2026-04-26 08:14 | 10.91048 | -25.75530 | 25002 ft | 305 kts | 206° |
| 2026-04-26 08:14 | 10.89123 | -25.76429 | 25002 ft | 305 kts | 206° |
| 2026-04-26 08:15 | 10.87192 | -25.77331 | 25004 ft | 305 kts | 206° |
| 2026-04-26 08:15 | 10.85263 | -25.78232 | 25005 ft | 305 kts | 205° |
| 2026-04-26 08:15 | 10.83336 | -25.79131 | 25005 ft | 305 kts | 206° |
| 2026-04-26 08:15 | 10.81409 | -25.80031 | 25005 ft | 304 kts | 205° |
| 2026-04-26 08:16 | 10.79488 | -25.80927 | 25007 ft | 304 kts | 205° |
| 2026-04-26 08:16 | 10.77564 | -25.81825 | 25006 ft | 304 kts | 206° |
| 2026-04-26 08:16 | 10.75643 | -25.82721 | 25006 ft | 303 kts | 205° |
| 2026-04-26 08:16 | 10.73746 | -25.83606 | 25006 ft | 304 kts | 206° |
| 2026-04-26 08:17 | 10.71825 | -25.84502 | 25007 ft | 304 kts | 206° |
| 2026-04-26 08:17 | 10.69900 | -25.85399 | 25008 ft | 305 kts | 205° |
| 2026-04-26 08:17 | 10.67972 | -25.86299 | 25008 ft | 305 kts | 205° |
| 2026-04-26 08:17 | 10.66036 | -25.87201 | 25008 ft | 305 kts | 206° |
| 2026-04-26 08:18 | 10.64107 | -25.88100 | 25009 ft | 304 kts | 206° |
| 2026-04-26 08:18 | 10.62834 | -25.88694 | 25009 ft | 304 kts | 206° |
| 2026-04-26 08:18 | 10.60911 | -25.89589 | 25007 ft | 304 kts | 205° |
| 2026-04-26 08:18 | 10.58356 | -25.90781 | 25007 ft | 305 kts | 206° |
| 2026-04-26 08:19 | 10.56424 | -25.91680 | 25008 ft | 305 kts | 205° |
| 2026-04-26 08:19 | 10.55119 | -25.92288 | 25009 ft | 305 kts | 205° |
| 2026-04-26 08:19 | 10.53192 | -25.93186 | 25009 ft | 305 kts | 206° |
| 2026-04-26 08:19 | 10.51286 | -25.94074 | 25008 ft | 305 kts | 205° |
| 2026-04-26 08:20 | 10.49352 | -25.94974 | 25008 ft | 306 kts | 205° |
| 2026-04-26 08:20 | 10.47420 | -25.95874 | 25007 ft | 306 kts | 205° |
| 2026-04-26 08:20 | 10.45487 | -25.96774 | 25006 ft | 305 kts | 205° |
| 2026-04-26 08:20 | 10.43559 | -25.97671 | 25005 ft | 305 kts | 205° |
| 2026-04-26 08:21 | 10.41624 | -25.98571 | 25005 ft | 305 kts | 205° |
| 2026-04-26 08:21 | 10.39693 | -25.99470 | 25005 ft | 305 kts | 205° |
| 2026-04-26 08:21 | 10.37765 | -26.00367 | 25005 ft | 304 kts | 205° |
| 2026-04-26 08:21 | 10.35845 | -26.01260 | 25004 ft | 303 kts | 205° |
| 2026-04-26 08:22 | 10.33919 | -26.02156 | 25006 ft | 304 kts | 205° |
| 2026-04-26 08:22 | 10.31985 | -26.03055 | 25006 ft | 306 kts | 205° |
| 2026-04-26 08:22 | 10.30050 | -26.03955 | 25007 ft | 306 kts | 205° |
| 2026-04-26 08:22 | 10.28120 | -26.04853 | 25008 ft | 305 kts | 205° |
| 2026-04-26 08:23 | 10.26191 | -26.05749 | 25006 ft | 305 kts | 205° |
| 2026-04-26 08:23 | 10.24284 | -26.06636 | 25005 ft | 305 kts | 205° |
| 2026-04-26 08:23 | 10.22354 | -26.07533 | 25005 ft | 305 kts | 205° |
| 2026-04-26 08:23 | 10.20423 | -26.08430 | 25005 ft | 305 kts | 205° |
| 2026-04-26 08:24 | 10.18499 | -26.09324 | 25007 ft | 304 kts | 205° |
| 2026-04-26 08:24 | 10.16574 | -26.10218 | 25005 ft | 305 kts | 205° |
| 2026-04-26 08:24 | 10.14641 | -26.11117 | 25005 ft | 306 kts | 205° |
| 2026-04-26 08:24 | 10.12706 | -26.12015 | 25005 ft | 305 kts | 205° |
| 2026-04-26 08:25 | 10.10776 | -26.12911 | 25009 ft | 305 kts | 205° |
| 2026-04-26 08:25 | 10.08852 | -26.13805 | 25007 ft | 305 kts | 205° |
| 2026-04-26 08:25 | 10.06921 | -26.14701 | 25007 ft | 305 kts | 205° |
| 2026-04-26 08:25 | 10.04985 | -26.15600 | 25007 ft | 306 kts | 205° |
| 2026-04-26 08:26 | 10.03046 | -26.16500 | 25006 ft | 306 kts | 205° |
| 2026-04-26 08:26 | 10.01116 | -26.17395 | 25007 ft | 305 kts | 205° |
| 2026-04-26 08:26 | 9.99183 | -26.18292 | 25006 ft | 305 kts | 205° |
| 2026-04-26 08:26 | 9.97249 | -26.19189 | 25005 ft | 306 kts | 205° |
| 2026-04-26 08:27 | 9.95339 | -26.20076 | 25006 ft | 305 kts | 205° |
| 2026-04-26 08:27 | 9.93401 | -26.20975 | 25007 ft | 305 kts | 205° |
| 2026-04-26 08:27 | 9.91470 | -26.21870 | 25009 ft | 305 kts | 205° |
| 2026-04-26 08:27 | 9.89543 | -26.22764 | 25005 ft | 305 kts | 205° |
| 2026-04-26 08:28 | 9.87602 | -26.23663 | 25005 ft | 306 kts | 205° |
| 2026-04-26 08:28 | 9.85664 | -26.24562 | 25005 ft | 306 kts | 205° |
| 2026-04-26 08:28 | 9.83725 | -26.25461 | 25007 ft | 305 kts | 205° |
| 2026-04-26 08:28 | 9.81792 | -26.26357 | 25006 ft | 306 kts | 205° |
| 2026-04-26 08:29 | 9.79860 | -26.27252 | 25007 ft | 306 kts | 205° |
| 2026-04-26 08:29 | 9.77923 | -26.28150 | 25006 ft | 306 kts | 205° |
| 2026-04-26 08:29 | 9.75990 | -26.29046 | 25003 ft | 305 kts | 205° |
| 2026-04-26 08:29 | 9.74090 | -26.29926 | 25003 ft | 304 kts | 205° |
| 2026-04-26 08:30 | 9.72161 | -26.30819 | 25005 ft | 305 kts | 205° |
| 2026-04-26 08:30 | 9.70220 | -26.31718 | 25004 ft | 306 kts | 205° |
| 2026-04-26 08:30 | 9.68279 | -26.32617 | 25005 ft | 306 kts | 205° |
| 2026-04-26 08:30 | 9.66347 | -26.33511 | 25005 ft | 304 kts | 205° |
| 2026-04-26 08:31 | 9.64420 | -26.34403 | 25005 ft | 305 kts | 205° |
| 2026-04-26 08:31 | 9.62488 | -26.35298 | 25002 ft | 305 kts | 205° |
| 2026-04-26 08:31 | 9.60553 | -26.36193 | 25003 ft | 306 kts | 205° |
| 2026-04-26 08:31 | 9.58618 | -26.37089 | 25004 ft | 306 kts | 205° |
| 2026-04-26 08:32 | 9.56685 | -26.37983 | 25006 ft | 305 kts | 205° |
| 2026-04-26 08:32 | 9.54755 | -26.38876 | 25007 ft | 305 kts | 205° |
| 2026-04-26 08:32 | 9.52820 | -26.39771 | 25004 ft | 306 kts | 205° |
| 2026-04-26 08:32 | 9.50879 | -26.40669 | 25007 ft | 306 kts | 205° |
| 2026-04-26 08:33 | 9.48942 | -26.41565 | 25007 ft | 305 kts | 204° |
| 2026-04-26 08:33 | 9.47013 | -26.42457 | 25006 ft | 304 kts | 204° |
| 2026-04-26 08:33 | 9.45086 | -26.43348 | 25005 ft | 305 kts | 204° |
| 2026-04-26 08:33 | 9.43174 | -26.44231 | 25005 ft | 307 kts | 204° |
| 2026-04-26 08:34 | 9.41233 | -26.45129 | 25006 ft | 306 kts | 204° |
| 2026-04-26 08:34 | 9.39297 | -26.46024 | 25008 ft | 305 kts | 204° |
| 2026-04-26 08:34 | 9.37365 | -26.46917 | 25007 ft | 305 kts | 204° |
| 2026-04-26 08:34 | 9.35425 | -26.47813 | 25007 ft | 306 kts | 204° |
| 2026-04-26 08:35 | 9.33489 | -26.48708 | 25007 ft | 306 kts | 204° |
| 2026-04-26 08:35 | 9.31552 | -26.49602 | 25006 ft | 305 kts | 204° |
| 2026-04-26 08:35 | 9.29622 | -26.50494 | 25008 ft | 305 kts | 204° |
| 2026-04-26 08:35 | 9.27687 | -26.51388 | 25007 ft | 305 kts | 204° |
| 2026-04-26 08:36 | 9.25750 | -26.52281 | 25005 ft | 307 kts | 204° |
| 2026-04-26 08:36 | 9.23808 | -26.53178 | 25006 ft | 306 kts | 204° |
| 2026-04-26 08:36 | 9.21867 | -26.54075 | 25006 ft | 306 kts | 204° |
| 2026-04-26 08:36 | 9.19953 | -26.54959 | 25006 ft | 307 kts | 204° |
| 2026-04-26 08:37 | 9.18011 | -26.55855 | 25009 ft | 306 kts | 204° |
| 2026-04-26 08:37 | 9.16065 | -26.56753 | 25008 ft | 308 kts | 204° |
| 2026-04-26 08:37 | 9.14115 | -26.57653 | 25009 ft | 307 kts | 204° |
| 2026-04-26 08:37 | 9.12172 | -26.58550 | 25010 ft | 306 kts | 204° |
| 2026-04-26 08:38 | 9.10228 | -26.59446 | 25013 ft | 306 kts | 204° |
| 2026-04-26 08:38 | 9.08288 | -26.60340 | 25012 ft | 306 kts | 204° |
| 2026-04-26 08:38 | 9.06347 | -26.61236 | 25013 ft | 307 kts | 204° |
| 2026-04-26 08:38 | 9.04407 | -26.62131 | 25013 ft | 307 kts | 204° |
| 2026-04-26 08:39 | 9.02467 | -26.63026 | 25012 ft | 306 kts | 204° |
| 2026-04-26 08:39 | 9.00546 | -26.63912 | 25012 ft | 306 kts | 204° |
| 2026-04-26 08:39 | 8.98610 | -26.64803 | 25010 ft | 306 kts | 204° |
| 2026-04-26 08:39 | 8.96672 | -26.65697 | 25010 ft | 305 kts | 204° |
| 2026-04-26 08:40 | 8.94742 | -26.66587 | 25007 ft | 304 kts | 204° |
| 2026-04-26 08:40 | 8.92817 | -26.67474 | 25003 ft | 304 kts | 204° |
| 2026-04-26 08:40 | 8.90886 | -26.68363 | 25003 ft | 305 kts | 204° |
| 2026-04-26 08:40 | 8.88950 | -26.69255 | 25004 ft | 306 kts | 204° |
| 2026-04-26 08:41 | 8.87011 | -26.70149 | 25005 ft | 306 kts | 204° |
| 2026-04-26 08:41 | 8.85074 | -26.71042 | 25006 ft | 306 kts | 204° |
| 2026-04-26 08:41 | 8.83163 | -26.71921 | 25006 ft | 305 kts | 204° |
| 2026-04-26 08:41 | 8.81231 | -26.72811 | 25005 ft | 305 kts | 204° |
| 2026-04-26 08:42 | 8.79299 | -26.73701 | 25006 ft | 305 kts | 203° |
| 2026-04-26 08:42 | 8.77374 | -26.74587 | 25005 ft | 304 kts | 203° |
| 2026-04-26 08:42 | 8.75453 | -26.75472 | 25004 ft | 303 kts | 203° |
| 2026-04-26 08:42 | 8.73531 | -26.76356 | 25004 ft | 304 kts | 203° |
| 2026-04-26 08:43 | 8.71597 | -26.77246 | 25001 ft | 305 kts | 203° |
| 2026-04-26 08:43 | 8.69661 | -26.78137 | 25002 ft | 305 kts | 203° |
| 2026-04-26 08:43 | 8.67729 | -26.79027 | 25003 ft | 305 kts | 203° |
| 2026-04-26 08:43 | 8.65802 | -26.79914 | 25002 ft | 304 kts | 204° |
| 2026-04-26 08:44 | 8.63873 | -26.80801 | 25003 ft | 305 kts | 203° |
| 2026-04-26 08:44 | 8.61939 | -26.81690 | 25005 ft | 306 kts | 203° |
| 2026-04-26 08:44 | 8.60002 | -26.82581 | 25004 ft | 305 kts | 204° |
| 2026-04-26 08:44 | 8.58097 | -26.83458 | 25004 ft | 305 kts | 203° |
| 2026-04-26 08:45 | 8.56166 | -26.84346 | 25004 ft | 304 kts | 204° |
| 2026-04-26 08:45 | 8.54237 | -26.85232 | 25003 ft | 304 kts | 203° |
| 2026-04-26 08:45 | 8.52309 | -26.86117 | 25003 ft | 304 kts | 203° |
| 2026-04-26 08:45 | 8.50380 | -26.87003 | 25005 ft | 304 kts | 203° |
| 2026-04-26 08:46 | 8.48450 | -26.87890 | 25006 ft | 305 kts | 203° |
| 2026-04-26 08:46 | 8.46515 | -26.88778 | 25006 ft | 305 kts | 203° |
| 2026-04-26 08:46 | 8.44579 | -26.89667 | 25004 ft | 306 kts | 202° |
| 2026-04-26 08:46 | 8.42640 | -26.90558 | 25004 ft | 305 kts | 202° |
| 2026-04-26 08:47 | 8.40733 | -26.91433 | 25006 ft | 304 kts | 203° |
| 2026-04-26 08:47 | 8.38805 | -26.92318 | 25005 ft | 304 kts | 203° |
| 2026-04-26 08:47 | 8.36871 | -26.93205 | 25005 ft | 305 kts | 203° |
| 2026-04-26 08:47 | 8.34937 | -26.94092 | 25006 ft | 306 kts | 203° |
| 2026-04-26 08:48 | 8.32996 | -26.94983 | 25006 ft | 305 kts | 203° |
| 2026-04-26 08:48 | 8.31063 | -26.95871 | 25004 ft | 305 kts | 203° |
| 2026-04-26 08:48 | 8.29130 | -26.96757 | 25004 ft | 305 kts | 203° |
| 2026-04-26 08:48 | 8.27198 | -26.97643 | 25004 ft | 306 kts | 203° |
| 2026-04-26 08:49 | 8.25259 | -26.98532 | 25005 ft | 306 kts | 202° |
| 2026-04-26 08:49 | 8.23318 | -26.99422 | 25006 ft | 306 kts | 203° |
| 2026-04-26 08:49 | 8.21381 | -27.00311 | 25007 ft | 306 kts | 202° |
| 2026-04-26 08:49 | 8.19441 | -27.01200 | 25006 ft | 306 kts | 202° |
| 2026-04-26 08:50 | 8.17498 | -27.02091 | 25006 ft | 306 kts | 202° |
| 2026-04-26 08:50 | 8.15582 | -27.02969 | 25005 ft | 306 kts | 202° |
| 2026-04-26 08:50 | 8.13646 | -27.03857 | 25005 ft | 305 kts | 203° |
| 2026-04-26 08:50 | 8.11718 | -27.04741 | 25004 ft | 305 kts | 203° |
| 2026-04-26 08:51 | 8.07851 | -27.06512 | 25006 ft | 305 kts | 203° |
| 2026-04-26 08:51 | 8.05926 | -27.07395 | 25006 ft | 304 kts | 203° |
| 2026-04-26 08:51 | 8.03999 | -27.08277 | 25006 ft | 303 kts | 203° |
| 2026-04-26 08:52 | 8.02080 | -27.09155 | 25006 ft | 304 kts | 203° |
| 2026-04-26 08:52 | 8.00150 | -27.10039 | 25006 ft | 305 kts | 202° |
| 2026-04-26 08:52 | 7.98214 | -27.10926 | 25007 ft | 305 kts | 202° |
| 2026-04-26 08:52 | 7.96304 | -27.11801 | 25008 ft | 305 kts | 203° |
| 2026-04-26 08:53 | 7.94367 | -27.12689 | 25009 ft | 305 kts | 202° |
| 2026-04-26 08:53 | 7.92432 | -27.13574 | 25009 ft | 305 kts | 202° |
| 2026-04-26 08:53 | 7.90500 | -27.14458 | 25008 ft | 305 kts | 202° |
| 2026-04-26 08:53 | 7.88572 | -27.15341 | 25008 ft | 304 kts | 202° |
| 2026-04-26 08:54 | 7.86637 | -27.16227 | 25005 ft | 304 kts | 203° |
| 2026-04-26 08:54 | 7.84715 | -27.17106 | 25004 ft | 304 kts | 203° |
| 2026-04-26 08:54 | 7.82786 | -27.17988 | 25001 ft | 305 kts | 202° |
| 2026-04-26 08:54 | 7.80875 | -27.18862 | 25002 ft | 306 kts | 202° |
| 2026-04-26 08:55 | 7.78935 | -27.19750 | 25008 ft | 306 kts | 203° |
| 2026-04-26 08:55 | 7.76998 | -27.20637 | 25009 ft | 305 kts | 203° |
| 2026-04-26 08:55 | 7.75064 | -27.21521 | 25012 ft | 305 kts | 203° |
| 2026-04-26 08:55 | 7.73131 | -27.22405 | 25011 ft | 305 kts | 202° |
| 2026-04-26 08:56 | 7.71202 | -27.23287 | 25010 ft | 304 kts | 202° |
| 2026-04-26 08:56 | 7.69923 | -27.23872 | 25009 ft | 304 kts | 202° |
| 2026-04-26 08:56 | 7.67352 | -27.25048 | 25009 ft | 303 kts | 202° |
| 2026-04-26 08:56 | 7.65426 | -27.25928 | 25010 ft | 304 kts | 202° |
| 2026-04-26 08:57 | 7.63498 | -27.26809 | 25004 ft | 305 kts | 202° |
| 2026-04-26 08:57 | 7.61591 | -27.27681 | 25005 ft | 305 kts | 202° |
| 2026-04-26 08:57 | 7.59664 | -27.28562 | 25005 ft | 304 kts | 202° |
| 2026-04-26 08:57 | 7.57739 | -27.29442 | 25004 ft | 304 kts | 202° |
| 2026-04-26 08:58 | 7.55806 | -27.30325 | 25007 ft | 304 kts | 202° |
| 2026-04-26 08:58 | 7.53872 | -27.31208 | 25008 ft | 306 kts | 202° |
| 2026-04-26 08:58 | 7.51935 | -27.32093 | 25009 ft | 306 kts | 202° |
| 2026-04-26 08:58 | 7.49998 | -27.32979 | 25011 ft | 306 kts | 202° |
| 2026-04-26 08:59 | 7.48060 | -27.33863 | 25011 ft | 306 kts | 202° |
| 2026-04-26 08:59 | 7.46115 | -27.34751 | 25011 ft | 306 kts | 202° |
| 2026-04-26 08:59 | 7.44174 | -27.35638 | 25011 ft | 306 kts | 202° |
| 2026-04-26 08:59 | 7.42257 | -27.36513 | 25011 ft | 305 kts | 202° |
| 2026-04-26 09:00 | 7.40317 | -27.37400 | 25010 ft | 304 kts | 202° |
| 2026-04-26 09:00 | 7.38387 | -27.38280 | 25010 ft | 304 kts | 202° |
| 2026-04-26 09:00 | 7.36464 | -27.39158 | 25008 ft | 303 kts | 202° |
| 2026-04-26 09:00 | 7.34542 | -27.40035 | 25007 ft | 303 kts | 202° |
| 2026-04-26 09:01 | 7.32625 | -27.40910 | 25007 ft | 302 kts | 202° |
| 2026-04-26 09:01 | 7.30703 | -27.41788 | 25007 ft | 303 kts | 202° |
| 2026-04-26 09:01 | 7.28781 | -27.42665 | 25008 ft | 304 kts | 202° |
| 2026-04-26 09:01 | 7.26854 | -27.43543 | 25008 ft | 304 kts | 202° |
| 2026-04-26 09:02 | 7.24924 | -27.44424 | 25009 ft | 304 kts | 202° |
| 2026-04-26 09:02 | 7.23018 | -27.45294 | 25010 ft | 305 kts | 202° |
| 2026-04-26 09:02 | 7.21084 | -27.46176 | 25011 ft | 305 kts | 202° |
| 2026-04-26 09:02 | 7.19150 | -27.47058 | 25011 ft | 305 kts | 202° |
| 2026-04-26 09:03 | 7.17207 | -27.47944 | 25009 ft | 306 kts | 202° |
| 2026-04-26 09:03 | 7.15268 | -27.48828 | 25010 ft | 306 kts | 202° |
| 2026-04-26 09:03 | 7.13333 | -27.49711 | 25010 ft | 305 kts | 202° |
| 2026-04-26 09:03 | 7.11396 | -27.50594 | 25010 ft | 305 kts | 202° |
| 2026-04-26 09:04 | 7.09463 | -27.51475 | 25015 ft | 305 kts | 202° |
| 2026-04-26 09:04 | 7.07527 | -27.52357 | 25016 ft | 305 kts | 202° |
| 2026-04-26 09:04 | 7.05596 | -27.53238 | 25016 ft | 304 kts | 202° |
| 2026-04-26 09:04 | 7.03696 | -27.54104 | 25016 ft | 303 kts | 202° |
| 2026-04-26 09:05 | 7.01753 | -27.54989 | 25014 ft | 302 kts | 202° |
| 2026-04-26 09:05 | 7.00482 | -27.55568 | 25013 ft | 302 kts | 202° |
| 2026-04-26 09:05 | 6.97946 | -27.56723 | 25012 ft | 302 kts | 202° |
| 2026-04-26 09:05 | 6.96655 | -27.57312 | 25012 ft | 302 kts | 202° |
| 2026-04-26 09:06 | 6.94123 | -27.58466 | 25006 ft | 301 kts | 202° |
| 2026-04-26 09:06 | 6.92214 | -27.59335 | 25005 ft | 301 kts | 202° |
| 2026-04-26 09:06 | 6.90923 | -27.59923 | 25002 ft | 301 kts | 202° |
| 2026-04-26 09:06 | 6.89020 | -27.60790 | 25002 ft | 301 kts | 202° |
| 2026-04-26 09:07 | 6.87109 | -27.61660 | 25003 ft | 302 kts | 202° |
| 2026-04-26 09:07 | 6.85218 | -27.62521 | 25004 ft | 303 kts | 202° |
| 2026-04-26 09:07 | 6.83291 | -27.63399 | 25006 ft | 304 kts | 202° |
| 2026-04-26 09:07 | 6.81364 | -27.64277 | 25007 ft | 305 kts | 202° |
| 2026-04-26 09:08 | 6.79431 | -27.65158 | 25013 ft | 304 kts | 202° |
| 2026-04-26 09:08 | 6.77502 | -27.66037 | 25013 ft | 304 kts | 202° |
| 2026-04-26 09:08 | 6.75579 | -27.66913 | 25013 ft | 304 kts | 202° |
| 2026-04-26 09:08 | 6.73649 | -27.67792 | 25012 ft | 304 kts | 202° |
| 2026-04-26 09:09 | 6.71725 | -27.68668 | 25013 ft | 303 kts | 202° |
| 2026-04-26 09:09 | 6.69800 | -27.69545 | 25013 ft | 303 kts | 202° |
| 2026-04-26 09:09 | 6.67897 | -27.70412 | 25014 ft | 303 kts | 202° |
| 2026-04-26 09:09 | 6.65977 | -27.71286 | 25013 ft | 303 kts | 202° |
| 2026-04-26 09:10 | 6.64055 | -27.72161 | 25013 ft | 303 kts | 202° |
| 2026-04-26 09:10 | 6.62131 | -27.73037 | 25013 ft | 303 kts | 202° |
| 2026-04-26 09:10 | 6.60207 | -27.73913 | 25013 ft | 303 kts | 202° |
| 2026-04-26 09:10 | 6.58281 | -27.74790 | 25013 ft | 303 kts | 202° |
| 2026-04-26 09:11 | 6.56356 | -27.75665 | 25013 ft | 303 kts | 202° |
| 2026-04-26 09:11 | 6.54433 | -27.76541 | 25012 ft | 303 kts | 202° |
| 2026-04-26 09:11 | 6.52511 | -27.77416 | 25014 ft | 303 kts | 202° |
| 2026-04-26 09:11 | 6.50591 | -27.78289 | 25015 ft | 303 kts | 202° |
| 2026-04-26 09:12 | 6.48668 | -27.79164 | 25013 ft | 303 kts | 202° |
| 2026-04-26 09:12 | 6.46764 | -27.80030 | 25012 ft | 303 kts | 202° |
| 2026-04-26 09:12 | 6.44842 | -27.80904 | 25013 ft | 304 kts | 202° |
| 2026-04-26 09:12 | 6.42918 | -27.81780 | 25013 ft | 303 kts | 202° |
| 2026-04-26 09:13 | 6.40994 | -27.82655 | 25015 ft | 303 kts | 202° |
| 2026-04-26 09:13 | 6.39068 | -27.83531 | 25015 ft | 303 kts | 202° |
| 2026-04-26 09:13 | 6.37143 | -27.84406 | 25015 ft | 303 kts | 202° |
| 2026-04-26 09:13 | 6.35218 | -27.85282 | 25015 ft | 303 kts | 202° |
| 2026-04-26 09:14 | 6.33294 | -27.86156 | 25015 ft | 303 kts | 202° |
| 2026-04-26 09:14 | 6.31371 | -27.87031 | 25013 ft | 303 kts | 202° |
| 2026-04-26 09:14 | 6.29448 | -27.87905 | 25012 ft | 303 kts | 202° |
| 2026-04-26 09:14 | 6.27522 | -27.88780 | 25013 ft | 303 kts | 202° |
| 2026-04-26 09:15 | 6.25620 | -27.89645 | 25013 ft | 303 kts | 202° |
| 2026-04-26 09:15 | 6.23696 | -27.90519 | 25013 ft | 304 kts | 202° |
| 2026-04-26 09:15 | 6.21765 | -27.91397 | 25013 ft | 303 kts | 202° |
| 2026-04-26 09:15 | 6.19841 | -27.92271 | 25013 ft | 304 kts | 202° |
| 2026-04-26 09:16 | 6.17916 | -27.93146 | 25010 ft | 304 kts | 202° |
| 2026-04-26 09:16 | 6.15991 | -27.94020 | 25011 ft | 303 kts | 202° |
| 2026-04-26 09:16 | 6.14065 | -27.94895 | 25011 ft | 303 kts | 202° |
| 2026-04-26 09:16 | 6.12139 | -27.95770 | 25011 ft | 303 kts | 202° |
| 2026-04-26 09:17 | 6.10234 | -27.96636 | 25011 ft | 303 kts | 202° |
| 2026-04-26 09:17 | 6.08308 | -27.97510 | 25011 ft | 303 kts | 202° |
| 2026-04-26 09:17 | 6.06384 | -27.98384 | 25011 ft | 303 kts | 202° |
| 2026-04-26 09:17 | 6.04458 | -27.99259 | 25013 ft | 303 kts | 202° |
| 2026-04-26 09:18 | 6.02534 | -28.00133 | 25010 ft | 303 kts | 202° |
| 2026-04-26 09:18 | 6.00610 | -28.01006 | 25010 ft | 303 kts | 202° |
| 2026-04-26 09:18 | 5.98683 | -28.01881 | 25010 ft | 303 kts | 202° |
| 2026-04-26 09:18 | 5.96759 | -28.02755 | 25010 ft | 303 kts | 202° |
| 2026-04-26 09:19 | 5.94837 | -28.03628 | 25013 ft | 303 kts | 202° |
| 2026-04-26 09:19 | 5.92910 | -28.04502 | 25013 ft | 303 kts | 202° |
| 2026-04-26 09:19 | 5.90984 | -28.05376 | 25010 ft | 303 kts | 202° |
| 2026-04-26 09:19 | 5.89061 | -28.06249 | 25010 ft | 303 kts | 202° |
| 2026-04-26 09:20 | 5.87136 | -28.07123 | 25010 ft | 303 kts | 202° |
| 2026-04-26 09:20 | 5.85213 | -28.07995 | 25012 ft | 303 kts | 202° |
| 2026-04-26 09:20 | 5.83290 | -28.08868 | 25009 ft | 303 kts | 202° |
| 2026-04-26 09:20 | 5.81391 | -28.09729 | 25009 ft | 303 kts | 202° |
| 2026-04-26 09:21 | 5.79470 | -28.10601 | 25008 ft | 303 kts | 202° |
| 2026-04-26 09:21 | 5.77548 | -28.11473 | 25008 ft | 303 kts | 202° |
| 2026-04-26 09:21 | 5.75626 | -28.12345 | 25009 ft | 303 kts | 202° |
| 2026-04-26 09:21 | 5.73710 | -28.13214 | 25007 ft | 303 kts | 202° |
| 2026-04-26 09:22 | 5.71793 | -28.14083 | 25004 ft | 303 kts | 201° |
| 2026-04-26 09:22 | 5.69873 | -28.14954 | 25006 ft | 303 kts | 201° |
| 2026-04-26 09:22 | 5.67953 | -28.15825 | 25006 ft | 303 kts | 201° |
| 2026-04-26 09:22 | 5.66031 | -28.16696 | 25006 ft | 303 kts | 201° |
| 2026-04-26 09:23 | 5.64109 | -28.17568 | 25009 ft | 303 kts | 201° |
| 2026-04-26 09:23 | 5.62184 | -28.18441 | 25010 ft | 303 kts | 201° |
| 2026-04-26 09:23 | 5.60262 | -28.19312 | 25010 ft | 303 kts | 201° |
| 2026-04-26 09:23 | 5.58358 | -28.20175 | 25010 ft | 303 kts | 201° |
| 2026-04-26 09:24 | 5.56435 | -28.21047 | 25010 ft | 303 kts | 201° |
| 2026-04-26 09:24 | 5.54512 | -28.21918 | 25010 ft | 303 kts | 201° |
| 2026-04-26 09:24 | 5.52587 | -28.22791 | 25010 ft | 303 kts | 201° |
| 2026-04-26 09:24 | 5.50666 | -28.23661 | 25010 ft | 303 kts | 201° |
| 2026-04-26 09:25 | 5.48743 | -28.24533 | 25007 ft | 303 kts | 201° |
| 2026-04-26 09:25 | 5.46820 | -28.25404 | 25007 ft | 303 kts | 201° |
| 2026-04-26 09:25 | 5.44898 | -28.26275 | 25007 ft | 303 kts | 201° |
| 2026-04-26 09:25 | 5.42975 | -28.27146 | 25007 ft | 303 kts | 201° |
| 2026-04-26 09:26 | 5.41054 | -28.28016 | 25010 ft | 303 kts | 201° |
| 2026-04-26 09:26 | 5.39131 | -28.28887 | 25010 ft | 303 kts | 201° |
| 2026-04-26 09:26 | 5.37209 | -28.29758 | 25011 ft | 303 kts | 201° |
| 2026-04-26 09:26 | 5.35283 | -28.30630 | 25010 ft | 303 kts | 201° |
| 2026-04-26 09:27 | 5.33357 | -28.31502 | 25010 ft | 303 kts | 201° |
| 2026-04-26 09:27 | 5.31431 | -28.32375 | 25010 ft | 303 kts | 201° |
| 2026-04-26 09:27 | 5.29529 | -28.33236 | 25011 ft | 303 kts | 201° |
| 2026-04-26 09:27 | 5.27603 | -28.34108 | 25011 ft | 303 kts | 201° |
| 2026-04-26 09:28 | 5.25680 | -28.34979 | 25012 ft | 303 kts | 201° |
| 2026-04-26 09:28 | 5.23751 | -28.35852 | 25012 ft | 303 kts | 201° |
| 2026-04-26 09:28 | 5.21827 | -28.36723 | 25012 ft | 303 kts | 201° |
| 2026-04-26 09:28 | 5.19902 | -28.37594 | 25012 ft | 303 kts | 201° |
| 2026-04-26 09:29 | 5.17975 | -28.38467 | 25008 ft | 303 kts | 201° |
| 2026-04-26 09:29 | 5.16046 | -28.39340 | 25008 ft | 303 kts | 201° |
| 2026-04-26 09:29 | 5.14123 | -28.40210 | 25008 ft | 304 kts | 201° |
| 2026-04-26 09:29 | 5.12196 | -28.41082 | 25008 ft | 304 kts | 201° |
| 2026-04-26 09:30 | 5.10270 | -28.41954 | 25011 ft | 304 kts | 201° |
| 2026-04-26 09:30 | 5.08342 | -28.42827 | 25011 ft | 304 kts | 201° |
| 2026-04-26 09:30 | 5.06440 | -28.43687 | 25010 ft | 304 kts | 201° |
| 2026-04-26 09:30 | 5.04514 | -28.44558 | 25011 ft | 304 kts | 201° |
| 2026-04-26 09:31 | 5.02586 | -28.45430 | 25011 ft | 304 kts | 201° |
| 2026-04-26 09:31 | 5.00656 | -28.46304 | 25011 ft | 304 kts | 201° |
| 2026-04-26 09:31 | 4.98732 | -28.47174 | 25011 ft | 304 kts | 201° |
| 2026-04-26 09:31 | 4.96796 | -28.48049 | 25012 ft | 304 kts | 201° |
| 2026-04-26 09:32 | 4.94868 | -28.48922 | 25009 ft | 304 kts | 201° |
| 2026-04-26 09:32 | 4.92962 | -28.49784 | 25009 ft | 304 kts | 201° |
| 2026-04-26 09:32 | 4.91035 | -28.50655 | 25009 ft | 304 kts | 201° |
| 2026-04-26 09:32 | 4.89105 | -28.51528 | 25009 ft | 304 kts | 201° |
| 2026-04-26 09:33 | 4.87176 | -28.52400 | 25011 ft | 304 kts | 201° |
| 2026-04-26 09:33 | 4.85249 | -28.53271 | 25011 ft | 304 kts | 201° |
| 2026-04-26 09:33 | 4.83318 | -28.54145 | 25011 ft | 304 kts | 201° |
| 2026-04-26 09:33 | 4.81387 | -28.55017 | 25008 ft | 304 kts | 201° |
| 2026-04-26 09:34 | 4.79456 | -28.55890 | 25006 ft | 304 kts | 201° |
| 2026-04-26 09:34 | 4.77526 | -28.56763 | 25007 ft | 304 kts | 201° |
| 2026-04-26 09:34 | 4.75595 | -28.57636 | 25007 ft | 304 kts | 201° |
| 2026-04-26 09:34 | 4.73663 | -28.58509 | 25007 ft | 304 kts | 201° |
| 2026-04-26 09:35 | 4.71730 | -28.59382 | 25010 ft | 305 kts | 201° |
| 2026-04-26 09:35 | 4.69800 | -28.60255 | 25010 ft | 305 kts | 201° |
| 2026-04-26 09:35 | 4.67866 | -28.61129 | 25009 ft | 305 kts | 201° |
| 2026-04-26 09:35 | 4.65930 | -28.62003 | 25009 ft | 305 kts | 201° |
| 2026-04-26 09:36 | 4.64018 | -28.62868 | 25010 ft | 306 kts | 201° |
| 2026-04-26 09:36 | 4.62079 | -28.63744 | 25010 ft | 306 kts | 201° |
| 2026-04-26 09:36 | 4.60134 | -28.64622 | 25009 ft | 306 kts | 201° |
| 2026-04-26 09:36 | 4.58192 | -28.65500 | 25008 ft | 306 kts | 201° |
| 2026-04-26 09:37 | 4.56253 | -28.66376 | 25005 ft | 306 kts | 201° |
| 2026-04-26 09:37 | 4.54313 | -28.67252 | 25006 ft | 306 kts | 201° |
| 2026-04-26 09:37 | 4.52374 | -28.68128 | 25006 ft | 306 kts | 201° |
| 2026-04-26 09:37 | 4.50426 | -28.69008 | 25005 ft | 306 kts | 201° |
| 2026-04-26 09:38 | 4.48509 | -28.69873 | 25008 ft | 306 kts | 201° |
| 2026-04-26 09:38 | 4.46570 | -28.70749 | 25008 ft | 306 kts | 201° |
| 2026-04-26 09:38 | 4.44626 | -28.71627 | 25008 ft | 306 kts | 201° |
| 2026-04-26 09:38 | 4.42686 | -28.72503 | 25008 ft | 306 kts | 201° |
| 2026-04-26 09:39 | 4.40748 | -28.73378 | 25005 ft | 306 kts | 201° |
| 2026-04-26 09:39 | 4.38804 | -28.74256 | 25005 ft | 306 kts | 201° |
| 2026-04-26 09:39 | 4.36862 | -28.75132 | 25005 ft | 306 kts | 201° |
| 2026-04-26 09:39 | 4.34923 | -28.76007 | 25005 ft | 306 kts | 201° |
| 2026-04-26 09:40 | 4.33006 | -28.76874 | 25005 ft | 306 kts | 201° |
| 2026-04-26 09:40 | 4.31065 | -28.77749 | 25005 ft | 305 kts | 201° |
| 2026-04-26 09:40 | 4.29129 | -28.78622 | 25007 ft | 305 kts | 201° |
| 2026-04-26 09:40 | 4.27191 | -28.79498 | 25005 ft | 305 kts | 201° |
| 2026-04-26 09:41 | 4.25252 | -28.80373 | 25007 ft | 305 kts | 201° |
| 2026-04-26 09:41 | 4.23313 | -28.81248 | 25007 ft | 305 kts | 201° |
| 2026-04-26 09:41 | 4.21377 | -28.82121 | 25007 ft | 305 kts | 201° |
| 2026-04-26 09:41 | 4.19444 | -28.82994 | 25007 ft | 305 kts | 201° |
| 2026-04-26 09:42 | 4.17503 | -28.83869 | 25004 ft | 305 kts | 201° |
| 2026-04-26 09:42 | 4.15566 | -28.84743 | 25004 ft | 305 kts | 201° |
| 2026-04-26 09:42 | 4.13657 | -28.85605 | 25004 ft | 305 kts | 201° |
| 2026-04-26 09:42 | 4.11717 | -28.86480 | 25004 ft | 305 kts | 201° |
| 2026-04-26 09:43 | 4.09783 | -28.87352 | 25002 ft | 305 kts | 201° |
| 2026-04-26 09:43 | 4.07843 | -28.88227 | 25002 ft | 305 kts | 201° |
| 2026-04-26 09:43 | 4.05906 | -28.89102 | 25002 ft | 305 kts | 201° |
| 2026-04-26 09:43 | 4.03970 | -28.89975 | 25003 ft | 305 kts | 201° |
| 2026-04-26 09:44 | 4.02033 | -28.90848 | 25005 ft | 305 kts | 201° |
| 2026-04-26 09:44 | 4.00097 | -28.91721 | 25006 ft | 305 kts | 201° |
| 2026-04-26 09:44 | 3.98163 | -28.92594 | 25007 ft | 305 kts | 201° |
| 2026-04-26 09:44 | 3.96230 | -28.93465 | 25008 ft | 305 kts | 201° |
| 2026-04-26 09:45 | 3.94321 | -28.94326 | 25005 ft | 304 kts | 201° |
| 2026-04-26 09:45 | 3.92390 | -28.95197 | 25005 ft | 304 kts | 201° |
| 2026-04-26 09:45 | 3.90457 | -28.96069 | 25004 ft | 304 kts | 201° |
| 2026-04-26 09:45 | 3.88525 | -28.96939 | 25004 ft | 304 kts | 201° |
| 2026-04-26 09:46 | 3.86589 | -28.97813 | 25003 ft | 304 kts | 201° |
| 2026-04-26 09:46 | 3.84653 | -28.98685 | 25003 ft | 304 kts | 201° |
| 2026-04-26 09:46 | 3.82722 | -28.99556 | 25003 ft | 304 kts | 201° |
| 2026-04-26 09:46 | 3.80791 | -29.00426 | 25003 ft | 304 kts | 201° |
| 2026-04-26 09:47 | 3.78855 | -29.01299 | 25008 ft | 304 kts | 201° |
| 2026-04-26 09:47 | 3.76949 | -29.02158 | 25008 ft | 304 kts | 201° |
| 2026-04-26 09:47 | 3.75013 | -29.03030 | 25008 ft | 304 kts | 201° |
| 2026-04-26 09:47 | 3.73083 | -29.03900 | 25005 ft | 305 kts | 201° |
| 2026-04-26 09:48 | 3.71150 | -29.04771 | 25004 ft | 305 kts | 201° |
| 2026-04-26 09:48 | 3.69216 | -29.05643 | 25004 ft | 305 kts | 201° |
| 2026-04-26 09:48 | 3.67281 | -29.06515 | 25004 ft | 305 kts | 201° |
| 2026-04-26 09:48 | 3.65351 | -29.07385 | 25007 ft | 304 kts | 201° |
| 2026-04-26 09:49 | 3.63427 | -29.08252 | 25004 ft | 303 kts | 201° |
| 2026-04-26 09:49 | 3.61505 | -29.09117 | 25004 ft | 303 kts | 201° |
| 2026-04-26 09:49 | 3.59585 | -29.09983 | 25003 ft | 302 kts | 201° |
| 2026-04-26 09:49 | 3.57665 | -29.10847 | 25003 ft | 302 kts | 201° |
| 2026-04-26 09:50 | 3.55742 | -29.11713 | 25003 ft | 302 kts | 201° |
| 2026-04-26 09:50 | 3.53822 | -29.12578 | 25003 ft | 302 kts | 201° |
| 2026-04-26 09:50 | 3.51932 | -29.13430 | 25005 ft | 302 kts | 201° |
| 2026-04-26 09:50 | 3.50012 | -29.14295 | 25005 ft | 302 kts | 201° |
| 2026-04-26 09:51 | 3.48095 | -29.15158 | 25003 ft | 302 kts | 201° |
| 2026-04-26 09:51 | 3.46178 | -29.16021 | 25003 ft | 302 kts | 201° |
| 2026-04-26 09:51 | 3.44262 | -29.16884 | 25003 ft | 302 kts | 201° |
| 2026-04-26 09:51 | 3.42347 | -29.17747 | 25003 ft | 302 kts | 201° |
| 2026-04-26 09:52 | 3.40431 | -29.18610 | 25000 ft | 302 kts | 201° |
| 2026-04-26 09:52 | 3.36596 | -29.20333 | 25000 ft | 302 kts | 201° |
| 2026-04-26 09:52 | 3.34680 | -29.21194 | 25000 ft | 302 kts | 201° |
| 2026-04-26 09:53 | 3.32764 | -29.22056 | 25006 ft | 302 kts | 201° |
| 2026-04-26 09:53 | 3.30850 | -29.22915 | 25003 ft | 302 kts | 201° |
| 2026-04-26 09:53 | 3.28935 | -29.23776 | 25003 ft | 301 kts | 201° |
| 2026-04-26 09:53 | 3.27020 | -29.24636 | 25003 ft | 301 kts | 201° |
| 2026-04-26 09:54 | 3.25752 | -29.25206 | 25003 ft | 301 kts | 201° |
| 2026-04-26 09:54 | 3.23219 | -29.26345 | 25003 ft | 301 kts | 201° |
| 2026-04-26 09:54 | 3.21308 | -29.27203 | 25003 ft | 301 kts | 201° |
| 2026-04-26 09:54 | 3.20019 | -29.27783 | 25003 ft | 301 kts | 201° |
| 2026-04-26 09:55 | 3.17487 | -29.28920 | 25000 ft | 301 kts | 201° |
| 2026-04-26 09:55 | 3.16195 | -29.29500 | 25000 ft | 301 kts | 201° |
| 2026-04-26 09:55 | 3.14307 | -29.30349 | 25000 ft | 301 kts | 201° |
| 2026-04-26 09:55 | 3.12397 | -29.31207 | 25000 ft | 301 kts | 201° |
| 2026-04-26 09:56 | 3.10484 | -29.32066 | 25001 ft | 301 kts | 201° |
| 2026-04-26 09:56 | 3.08574 | -29.32924 | 25002 ft | 301 kts | 201° |
| 2026-04-26 09:56 | 3.06662 | -29.33783 | 25002 ft | 301 kts | 201° |
| 2026-04-26 09:56 | 3.04742 | -29.34645 | 25002 ft | 301 kts | 201° |
| 2026-04-26 09:57 | 3.02855 | -29.35492 | 25001 ft | 301 kts | 201° |
| 2026-04-26 09:57 | 3.00940 | -29.36353 | 25001 ft | 301 kts | 201° |
| 2026-04-26 09:57 | 2.99032 | -29.37210 | 25001 ft | 301 kts | 201° |
| 2026-04-26 09:57 | 2.97123 | -29.38067 | 25001 ft | 301 kts | 201° |
| 2026-04-26 09:58 | 2.95203 | -29.38929 | 25001 ft | 301 kts | 201° |
| 2026-04-26 09:58 | 2.93316 | -29.39777 | 25001 ft | 301 kts | 201° |
| 2026-04-26 09:58 | 2.91403 | -29.40636 | 25001 ft | 301 kts | 201° |
| 2026-04-26 09:58 | 2.89496 | -29.41492 | 25001 ft | 301 kts | 201° |
| 2026-04-26 09:59 | 2.87583 | -29.42351 | 25001 ft | 301 kts | 201° |
| 2026-04-26 09:59 | 2.85674 | -29.43208 | 25001 ft | 301 kts | 201° |
| 2026-04-26 09:59 | 2.83761 | -29.44067 | 25001 ft | 301 kts | 201° |
| 2026-04-26 09:59 | 2.81854 | -29.44923 | 25001 ft | 301 kts | 201° |
| 2026-04-26 10:00 | 2.79944 | -29.45781 | 25001 ft | 301 kts | 201° |
| 2026-04-26 10:00 | 2.78032 | -29.46639 | 24998 ft | 301 kts | 201° |
| 2026-04-26 10:00 | 2.76145 | -29.47486 | 24998 ft | 301 kts | 201° |
| 2026-04-26 10:00 | 2.74228 | -29.48347 | 24998 ft | 301 kts | 201° |
| 2026-04-26 10:01 | 2.72320 | -29.49203 | 25000 ft | 301 kts | 201° |
| 2026-04-26 10:01 | 2.70409 | -29.50061 | 24999 ft | 301 kts | 201° |
| 2026-04-26 10:01 | 2.68495 | -29.50920 | 24999 ft | 301 kts | 201° |
| 2026-04-26 10:01 | 2.66581 | -29.51779 | 24999 ft | 301 kts | 201° |
| 2026-04-26 10:02 | 2.64672 | -29.52635 | 25000 ft | 300 kts | 201° |
| 2026-04-26 10:02 | 2.62762 | -29.53493 | 25000 ft | 300 kts | 201° |
| 2026-04-26 10:02 | 2.60880 | -29.54338 | 25000 ft | 300 kts | 201° |
| 2026-04-26 10:02 | 2.58975 | -29.55193 | 25000 ft | 299 kts | 201° |
| 2026-04-26 10:03 | 2.57075 | -29.56045 | 25003 ft | 299 kts | 201° |
| 2026-04-26 10:03 | 2.55176 | -29.56897 | 25003 ft | 299 kts | 201° |
| 2026-04-26 10:03 | 2.53276 | -29.57750 | 25002 ft | 299 kts | 201° |
| 2026-04-26 10:03 | 2.51378 | -29.58602 | 25002 ft | 299 kts | 201° |
| 2026-04-26 10:04 | 2.49480 | -29.59453 | 24999 ft | 299 kts | 201° |
| 2026-04-26 10:04 | 2.47582 | -29.60305 | 24999 ft | 299 kts | 201° |
| 2026-04-26 10:04 | 2.45685 | -29.61156 | 24999 ft | 299 kts | 201° |
| 2026-04-26 10:04 | 2.43785 | -29.62008 | 24999 ft | 299 kts | 201° |
| 2026-04-26 10:05 | 2.41884 | -29.62861 | 24999 ft | 299 kts | 201° |
| 2026-04-26 10:05 | 2.39986 | -29.63712 | 25000 ft | 299 kts | 201° |
| 2026-04-26 10:05 | 2.38107 | -29.64555 | 24999 ft | 299 kts | 201° |
| 2026-04-26 10:05 | 2.36204 | -29.65409 | 24999 ft | 299 kts | 201° |
| 2026-04-26 10:06 | 2.34308 | -29.66260 | 25002 ft | 299 kts | 201° |
| 2026-04-26 10:06 | 2.32405 | -29.67113 | 25002 ft | 299 kts | 201° |
| 2026-04-26 10:06 | 2.30508 | -29.67964 | 25001 ft | 299 kts | 201° |
| 2026-04-26 10:06 | 2.28611 | -29.68815 | 25001 ft | 299 kts | 201° |
| 2026-04-26 10:07 | 2.26711 | -29.69667 | 25001 ft | 299 kts | 201° |
| 2026-04-26 10:07 | 2.24814 | -29.70518 | 25001 ft | 299 kts | 201° |
| 2026-04-26 10:07 | 2.22920 | -29.71368 | 24998 ft | 299 kts | 201° |
| 2026-04-26 10:07 | 2.21023 | -29.72219 | 24998 ft | 299 kts | 201° |
| 2026-04-26 10:08 | 2.19150 | -29.73058 | 24995 ft | 299 kts | 201° |
| 2026-04-26 10:08 | 2.17256 | -29.73908 | 24995 ft | 299 kts | 201° |
| 2026-04-26 10:08 | 2.15360 | -29.74758 | 24995 ft | 299 kts | 201° |
| 2026-04-26 10:08 | 2.13459 | -29.75611 | 24995 ft | 299 kts | 201° |
| 2026-04-26 10:09 | 2.11564 | -29.76460 | 24998 ft | 299 kts | 201° |
| 2026-04-26 10:09 | 2.09666 | -29.77311 | 24998 ft | 299 kts | 201° |
| 2026-04-26 10:09 | 2.07770 | -29.78162 | 25000 ft | 299 kts | 201° |
| 2026-04-26 10:09 | 2.05870 | -29.79014 | 24998 ft | 299 kts | 201° |
| 2026-04-26 10:10 | 2.03975 | -29.79863 | 24998 ft | 299 kts | 201° |
| 2026-04-26 10:10 | 2.02077 | -29.80714 | 24998 ft | 299 kts | 201° |
| 2026-04-26 10:10 | 2.00177 | -29.81566 | 24998 ft | 299 kts | 201° |
| 2026-04-26 10:10 | 1.98280 | -29.82416 | 24999 ft | 299 kts | 201° |
| 2026-04-26 10:11 | 1.96394 | -29.83262 | 25005 ft | 301 kts | 201° |
| 2026-04-26 10:11 | 1.94473 | -29.84123 | 25007 ft | 302 kts | 201° |
| 2026-04-26 10:11 | 1.92556 | -29.84983 | 25006 ft | 302 kts | 201° |
| 2026-04-26 10:11 | 1.90657 | -29.85834 | 25007 ft | 303 kts | 201° |
| 2026-04-26 10:12 | 1.88734 | -29.86696 | 25006 ft | 303 kts | 201° |
| 2026-04-26 10:12 | 1.86810 | -29.87559 | 25003 ft | 303 kts | 201° |
| 2026-04-26 10:12 | 1.84882 | -29.88423 | 25003 ft | 303 kts | 201° |
| 2026-04-26 10:12 | 1.82957 | -29.89286 | 25003 ft | 303 kts | 201° |
| 2026-04-26 10:13 | 1.81029 | -29.90150 | 25004 ft | 303 kts | 201° |
| 2026-04-26 10:13 | 1.79108 | -29.91012 | 25003 ft | 303 kts | 201° |
| 2026-04-26 10:13 | 1.77183 | -29.91874 | 25003 ft | 303 kts | 201° |
| 2026-04-26 10:13 | 1.75258 | -29.92737 | 25003 ft | 303 kts | 201° |
| 2026-04-26 10:14 | 1.73329 | -29.93601 | 25006 ft | 303 kts | 201° |
| 2026-04-26 10:14 | 1.71407 | -29.94463 | 25006 ft | 303 kts | 201° |
| 2026-04-26 10:14 | 1.69505 | -29.95316 | 25006 ft | 303 kts | 201° |
| 2026-04-26 10:14 | 1.67581 | -29.96177 | 25006 ft | 303 kts | 201° |
| 2026-04-26 10:15 | 1.65657 | -29.97040 | 25008 ft | 303 kts | 201° |
| 2026-04-26 10:15 | 1.63743 | -29.97898 | 25007 ft | 300 kts | 201° |
| 2026-04-26 10:15 | 1.61849 | -29.98748 | 25005 ft | 297 kts | 201° |
| 2026-04-26 10:15 | 1.59966 | -29.99591 | 25002 ft | 296 kts | 201° |
| 2026-04-26 10:16 | 1.58090 | -30.00432 | 25000 ft | 296 kts | 201° |
| 2026-04-26 10:16 | 1.56205 | -30.01277 | 25004 ft | 298 kts | 201° |
| 2026-04-26 10:16 | 1.54309 | -30.02127 | 25006 ft | 299 kts | 201° |
| 2026-04-26 10:16 | 1.52414 | -30.02978 | 25040 ft | 299 kts | 201° |
| 2026-04-26 10:17 | 1.50514 | -30.03830 | 25085 ft | 299 kts | 201° |
| 2026-04-26 10:17 | 1.48626 | -30.04678 | 25252 ft | 293 kts | 201° |
| 2026-04-26 10:17 | 1.46818 | -30.05491 | 25809 ft | 278 kts | 201° |
| 2026-04-26 10:17 | 1.45105 | -30.06258 | 26442 ft | 267 kts | 200° |
| 2026-04-26 10:18 | 1.43444 | -30.07002 | 27206 ft | 257 kts | 200° |
| 2026-04-26 10:18 | 1.41833 | -30.07722 | 27993 ft | 250 kts | 200° |
| 2026-04-26 10:18 | 1.40266 | -30.08425 | 28796 ft | 242 kts | 199° |
| 2026-04-26 10:18 | 1.38777 | -30.09096 | 29529 ft | 228 kts | 199° |
| 2026-04-26 10:19 | 1.37362 | -30.09730 | 29947 ft | 218 kts | 199° |
| 2026-04-26 10:19 | 1.35978 | -30.10349 | 29998 ft | 219 kts | 198° |
| 2026-04-26 10:19 | 1.34582 | -30.10973 | 29991 ft | 221 kts | 199° |
| 2026-04-26 10:19 | 1.33178 | -30.11603 | 29994 ft | 222 kts | 199° |
| 2026-04-26 10:20 | 1.31768 | -30.12236 | 29994 ft | 222 kts | 199° |
| 2026-04-26 10:20 | 1.30835 | -30.12655 | 29999 ft | 221 kts | 199° |
| 2026-04-26 10:20 | 1.28956 | -30.13498 | 30001 ft | 221 kts | 199° |
| 2026-04-26 10:20 | 1.27550 | -30.14128 | 30001 ft | 221 kts | 199° |
| 2026-04-26 10:21 | 1.26147 | -30.14757 | 30004 ft | 221 kts | 199° |
| 2026-04-26 10:21 | 1.24745 | -30.15386 | 30004 ft | 221 kts | 199° |
| 2026-04-26 10:21 | 1.23340 | -30.16016 | 30004 ft | 221 kts | 199° |
| 2026-04-26 10:21 | 1.21938 | -30.16645 | 30004 ft | 221 kts | 199° |
| 2026-04-26 10:22 | 1.20536 | -30.17273 | 30001 ft | 221 kts | 199° |
| 2026-04-26 10:22 | 1.19130 | -30.17904 | 30001 ft | 221 kts | 199° |
| 2026-04-26 10:22 | 1.17740 | -30.18527 | 30001 ft | 221 kts | 199° |
| 2026-04-26 10:22 | 1.16334 | -30.19157 | 30001 ft | 221 kts | 199° |
| 2026-04-26 10:23 | 1.14929 | -30.19787 | 30004 ft | 221 kts | 199° |
| 2026-04-26 10:23 | 1.13523 | -30.20418 | 30004 ft | 221 kts | 199° |
| 2026-04-26 10:23 | 1.12118 | -30.21048 | 30004 ft | 221 kts | 199° |
| 2026-04-26 10:23 | 1.10711 | -30.21679 | 30004 ft | 221 kts | 199° |
| 2026-04-26 10:24 | 1.09307 | -30.22308 | 30004 ft | 221 kts | 199° |
| 2026-04-26 10:24 | 1.07901 | -30.22939 | 30004 ft | 221 kts | 199° |
| 2026-04-26 10:24 | 1.06509 | -30.23562 | 30004 ft | 221 kts | 199° |
| 2026-04-26 10:24 | 1.05103 | -30.24193 | 30003 ft | 221 kts | 199° |
| 2026-04-26 10:25 | 1.03696 | -30.24824 | 30003 ft | 221 kts | 199° |
| 2026-04-26 10:25 | 1.02287 | -30.25456 | 30003 ft | 221 kts | 199° |
| 2026-04-26 10:25 | 1.00878 | -30.26087 | 30003 ft | 221 kts | 199° |
| 2026-04-26 10:25 | 0.99493 | -30.26708 | 30002 ft | 221 kts | 199° |
| 2026-04-26 10:26 | 0.98089 | -30.27338 | 29997 ft | 221 kts | 200° |
| 2026-04-26 10:26 | 0.96687 | -30.27967 | 29996 ft | 221 kts | 200° |
| 2026-04-26 10:26 | 0.95286 | -30.28595 | 29997 ft | 220 kts | 200° |
| 2026-04-26 10:26 | 0.93886 | -30.29222 | 29996 ft | 220 kts | 200° |
| 2026-04-26 10:27 | 0.92482 | -30.29851 | 29995 ft | 220 kts | 200° |
| 2026-04-26 10:27 | 0.91086 | -30.30478 | 29997 ft | 220 kts | 200° |
| 2026-04-26 10:27 | 0.89685 | -30.31105 | 29997 ft | 220 kts | 200° |
| 2026-04-26 10:27 | 0.88287 | -30.31732 | 29997 ft | 220 kts | 200° |
| 2026-04-26 10:28 | 0.86910 | -30.32349 | 29996 ft | 220 kts | 200° |
| 2026-04-26 10:28 | 0.85513 | -30.32976 | 29996 ft | 220 kts | 200° |
| 2026-04-26 10:28 | 0.84115 | -30.33602 | 29995 ft | 220 kts | 200° |
| 2026-04-26 10:28 | 0.82719 | -30.34228 | 29997 ft | 220 kts | 200° |
| 2026-04-26 10:29 | 0.81323 | -30.34854 | 30000 ft | 220 kts | 200° |
| 2026-04-26 10:29 | 0.79923 | -30.35482 | 29999 ft | 220 kts | 200° |
| 2026-04-26 10:29 | 0.78525 | -30.36108 | 29999 ft | 220 kts | 200° |
| 2026-04-26 10:29 | 0.77126 | -30.36736 | 29999 ft | 220 kts | 200° |
| 2026-04-26 10:30 | 0.75730 | -30.37361 | 29999 ft | 220 kts | 200° |
| 2026-04-26 10:30 | 0.74348 | -30.37981 | 29998 ft | 220 kts | 200° |
| 2026-04-26 10:30 | 0.72952 | -30.38606 | 30000 ft | 220 kts | 200° |
| 2026-04-26 10:30 | 0.71556 | -30.39232 | 30000 ft | 220 kts | 200° |
| 2026-04-26 10:31 | 0.70162 | -30.39857 | 29996 ft | 220 kts | 200° |
| 2026-04-26 10:31 | 0.68769 | -30.40481 | 29999 ft | 219 kts | 200° |
| 2026-04-26 10:31 | 0.67380 | -30.41105 | 29997 ft | 219 kts | 200° |
| 2026-04-26 10:31 | 0.65990 | -30.41727 | 29996 ft | 219 kts | 200° |
| 2026-04-26 10:32 | 0.64610 | -30.42346 | 30003 ft | 217 kts | 201° |
| 2026-04-26 10:32 | 0.63238 | -30.42961 | 30001 ft | 216 kts | 200° |
| 2026-04-26 10:32 | 0.61874 | -30.43573 | 29998 ft | 215 kts | 200° |
| 2026-04-26 10:32 | 0.60510 | -30.44184 | 29999 ft | 214 kts | 200° |
| 2026-04-26 10:33 | 0.59150 | -30.44793 | 29997 ft | 214 kts | 200° |
| 2026-04-26 10:33 | 0.57793 | -30.45402 | 29995 ft | 214 kts | 200° |
| 2026-04-26 10:33 | 0.56438 | -30.46009 | 29997 ft | 213 kts | 200° |
| 2026-04-26 10:33 | 0.55098 | -30.46609 | 29996 ft | 213 kts | 200° |
| 2026-04-26 10:34 | 0.53743 | -30.47217 | 29997 ft | 213 kts | 200° |
| 2026-04-26 10:34 | 0.52388 | -30.47824 | 30000 ft | 213 kts | 200° |
| 2026-04-26 10:34 | 0.51037 | -30.48430 | 29999 ft | 213 kts | 200° |
| 2026-04-26 10:34 | 0.49682 | -30.49037 | 29999 ft | 213 kts | 200° |
| 2026-04-26 10:35 | 0.48329 | -30.49644 | 29999 ft | 213 kts | 200° |
| 2026-04-26 10:35 | 0.46974 | -30.50251 | 29998 ft | 213 kts | 200° |
| 2026-04-26 10:35 | 0.45619 | -30.50858 | 29998 ft | 213 kts | 200° |
| 2026-04-26 10:35 | 0.44269 | -30.51463 | 30000 ft | 213 kts | 200° |
| 2026-04-26 10:36 | 0.42932 | -30.52063 | 29999 ft | 213 kts | 200° |
| 2026-04-26 10:36 | 0.41582 | -30.52668 | 29999 ft | 213 kts | 200° |
| 2026-04-26 10:36 | 0.40226 | -30.53275 | 29999 ft | 213 kts | 200° |
| 2026-04-26 10:36 | 0.38870 | -30.53884 | 29999 ft | 213 kts | 200° |
| 2026-04-26 10:37 | 0.37518 | -30.54489 | 29998 ft | 213 kts | 200° |
| 2026-04-26 10:37 | 0.36166 | -30.55095 | 30001 ft | 213 kts | 200° |
| 2026-04-26 10:37 | 0.34813 | -30.55702 | 30000 ft | 213 kts | 200° |
| 2026-04-26 10:37 | 0.33464 | -30.56307 | 30000 ft | 213 kts | 200° |
| 2026-04-26 10:38 | 0.32111 | -30.56914 | 30005 ft | 212 kts | 201° |
| 2026-04-26 10:38 | 0.30781 | -30.57509 | 30001 ft | 213 kts | 201° |
| 2026-04-26 10:38 | 0.29431 | -30.58115 | 30002 ft | 213 kts | 201° |
| 2026-04-26 10:38 | 0.28074 | -30.58723 | 30002 ft | 213 kts | 201° |
| 2026-04-26 10:39 | 0.26721 | -30.59330 | 29999 ft | 213 kts | 200° |
| 2026-04-26 10:39 | 0.25368 | -30.59936 | 29999 ft | 213 kts | 201° |
| 2026-04-26 10:39 | 0.24014 | -30.60543 | 29999 ft | 213 kts | 200° |
| 2026-04-26 10:39 | 0.22658 | -30.61151 | 29999 ft | 213 kts | 201° |
| 2026-04-26 10:40 | 0.21305 | -30.61758 | 29999 ft | 213 kts | 201° |
| 2026-04-26 10:40 | 0.19967 | -30.62358 | 29999 ft | 213 kts | 201° |
| 2026-04-26 10:40 | 0.18614 | -30.62964 | 29999 ft | 213 kts | 201° |
| 2026-04-26 10:40 | 0.17261 | -30.63570 | 30001 ft | 213 kts | 200° |
| 2026-04-26 10:41 | 0.15908 | -30.64177 | 30000 ft | 213 kts | 200° |
| 2026-04-26 10:41 | 0.14556 | -30.64783 | 30000 ft | 213 kts | 200° |
| 2026-04-26 10:41 | 0.13202 | -30.65391 | 29999 ft | 213 kts | 200° |
| 2026-04-26 10:41 | 0.11849 | -30.65997 | 29999 ft | 213 kts | 200° |
| 2026-04-26 10:42 | 0.10496 | -30.66603 | 29999 ft | 213 kts | 200° |
| 2026-04-26 10:42 | 0.09600 | -30.67005 | 29999 ft | 213 kts | 200° |
| 2026-04-26 10:42 | 0.08248 | -30.67611 | 29999 ft | 213 kts | 200° |
| 2026-04-26 10:42 | 0.06896 | -30.68217 | 30000 ft | 213 kts | 201° |
| 2026-04-26 10:43 | 0.05539 | -30.68825 | 30000 ft | 213 kts | 200° |
| 2026-04-26 10:43 | 0.04182 | -30.69434 | 29999 ft | 213 kts | 200° |
| 2026-04-26 10:43 | 0.02825 | -30.70042 | 29999 ft | 213 kts | 200° |
| 2026-04-26 10:43 | 0.01471 | -30.70649 | 30001 ft | 213 kts | 200° |
| 2026-04-26 10:44 | 0.00116 | -30.71257 | 30000 ft | 213 kts | 200° |
| 2026-04-26 10:44 | -0.01221 | -30.71856 | 30003 ft | 213 kts | 200° |
| 2026-04-26 10:44 | -0.02573 | -30.72462 | 30000 ft | 213 kts | 201° |
| 2026-04-26 10:44 | -0.03929 | -30.73070 | 29999 ft | 213 kts | 201° |
| 2026-04-26 10:45 | -0.05280 | -30.73676 | 29995 ft | 213 kts | 200° |
| 2026-04-26 10:45 | -0.06632 | -30.74282 | 29999 ft | 213 kts | 200° |
| 2026-04-26 10:45 | -0.07985 | -30.74888 | 29998 ft | 213 kts | 200° |
| 2026-04-26 10:45 | -0.09336 | -30.75494 | 29996 ft | 213 kts | 200° |
| 2026-04-26 10:46 | -0.10688 | -30.76100 | 30004 ft | 213 kts | 200° |
| 2026-04-26 10:46 | -0.12046 | -30.76708 | 30004 ft | 213 kts | 200° |
| 2026-04-26 10:46 | -0.13378 | -30.77306 | 30002 ft | 213 kts | 200° |
| 2026-04-26 10:46 | -0.14728 | -30.77911 | 30001 ft | 213 kts | 201° |
| 2026-04-26 10:47 | -0.16081 | -30.78518 | 29999 ft | 212 kts | 201° |
| 2026-04-26 10:47 | -0.17428 | -30.79121 | 29998 ft | 213 kts | 200° |
| 2026-04-26 10:47 | -0.18777 | -30.79726 | 29999 ft | 213 kts | 200° |
| 2026-04-26 10:47 | -0.20127 | -30.80332 | 30000 ft | 212 kts | 200° |
| 2026-04-26 10:48 | -0.21479 | -30.80937 | 29999 ft | 213 kts | 200° |
| 2026-04-26 10:48 | -0.22835 | -30.81545 | 29999 ft | 213 kts | 201° |
| 2026-04-26 10:48 | -0.24186 | -30.82151 | 30000 ft | 213 kts | 200° |
| 2026-04-26 10:48 | -0.25522 | -30.82750 | 29999 ft | 213 kts | 200° |
| 2026-04-26 10:49 | -0.26872 | -30.83355 | 30004 ft | 213 kts | 200° |
| 2026-04-26 10:49 | -0.28222 | -30.83961 | 30003 ft | 213 kts | 200° |
| 2026-04-26 10:49 | -0.29573 | -30.84566 | 30003 ft | 213 kts | 200° |
| 2026-04-26 10:49 | -0.30924 | -30.85172 | 30002 ft | 213 kts | 200° |
| 2026-04-26 10:50 | -0.32273 | -30.85777 | 30002 ft | 212 kts | 200° |
| 2026-04-26 10:50 | -0.33168 | -30.86178 | 30001 ft | 213 kts | 200° |
| 2026-04-26 10:50 | -0.34979 | -30.86989 | 30001 ft | 213 kts | 200° |
| 2026-04-26 10:50 | -0.36328 | -30.87594 | 30000 ft | 213 kts | 201° |
| 2026-04-26 10:51 | -0.37663 | -30.88193 | 30001 ft | 212 kts | 200° |
| 2026-04-26 10:51 | -0.40362 | -30.89403 | 30001 ft | 212 kts | 200° |
| 2026-04-26 10:51 | -0.41714 | -30.90009 | 30000 ft | 213 kts | 200° |
| 2026-04-26 10:52 | -0.43065 | -30.90614 | 30003 ft | 212 kts | 201° |
| 2026-04-26 10:52 | -0.44412 | -30.91219 | 30003 ft | 213 kts | 200° |
| 2026-04-26 10:52 | -0.45750 | -30.91818 | 30003 ft | 213 kts | 200° |
| 2026-04-26 10:52 | -0.47100 | -30.92424 | 30003 ft | 213 kts | 201° |
| 2026-04-26 10:53 | -0.48450 | -30.93029 | 30004 ft | 212 kts | 200° |
| 2026-04-26 10:53 | -0.49799 | -30.93634 | 30004 ft | 212 kts | 200° |
| 2026-04-26 10:53 | -0.51149 | -30.94239 | 30005 ft | 212 kts | 201° |
| 2026-04-26 10:54 | -0.53839 | -30.95445 | 29996 ft | 212 kts | 200° |
| 2026-04-26 10:54 | -0.55186 | -30.96049 | 29997 ft | 212 kts | 201° |
| 2026-04-26 10:54 | -0.56532 | -30.96653 | 30002 ft | 212 kts | 200° |
| 2026-04-26 10:54 | -0.57883 | -30.97258 | 30004 ft | 213 kts | 200° |
| 2026-04-26 10:55 | -0.59236 | -30.97864 | 30006 ft | 213 kts | 201° |
| 2026-04-26 10:55 | -0.60569 | -30.98462 | 30007 ft | 213 kts | 200° |
| 2026-04-26 10:55 | -0.61922 | -30.99069 | 30010 ft | 213 kts | 200° |
| 2026-04-26 10:55 | -0.63275 | -30.99676 | 30012 ft | 213 kts | 200° |
| 2026-04-26 10:56 | -0.64626 | -31.00282 | 30012 ft | 212 kts | 200° |
| 2026-04-26 10:56 | -0.65979 | -31.00888 | 30012 ft | 213 kts | 201° |
| 2026-04-26 10:56 | -0.67323 | -31.01490 | 30011 ft | 212 kts | 200° |
| 2026-04-26 10:56 | -0.68666 | -31.02094 | 30011 ft | 212 kts | 199° |
| 2026-04-26 10:57 | -0.70015 | -31.02697 | 30009 ft | 212 kts | 199° |
| 2026-04-26 10:57 | -0.71359 | -31.03299 | 30010 ft | 211 kts | 200° |
| 2026-04-26 10:57 | -0.72683 | -31.03894 | 30008 ft | 211 kts | 200° |
| 2026-04-26 10:57 | -0.74023 | -31.04495 | 30011 ft | 211 kts | 201° |
| 2026-04-26 10:58 | -0.75357 | -31.05094 | 30015 ft | 210 kts | 200° |
| 2026-04-26 10:58 | -0.76691 | -31.05692 | 30013 ft | 209 kts | 200° |
| 2026-04-26 10:58 | -0.78026 | -31.06289 | 30012 ft | 210 kts | 200° |
| 2026-04-26 10:58 | -0.79359 | -31.06887 | 30010 ft | 210 kts | 199° |
| 2026-04-26 10:59 | -0.80693 | -31.07486 | 30011 ft | 210 kts | 200° |
| 2026-04-26 10:59 | -0.82023 | -31.08082 | 30010 ft | 210 kts | 199° |
| 2026-04-26 10:59 | -0.83355 | -31.08677 | 30011 ft | 209 kts | 199° |
| 2026-04-26 10:59 | -0.84699 | -31.09230 | 30011 ft | 209 kts | 198° |
| 2026-04-26 11:00 | -0.86021 | -31.09802 | 30011 ft | 209 kts | 199° |
| 2026-04-26 11:00 | -0.87361 | -31.10377 | 30015 ft | 209 kts | 199° |
| 2026-04-26 11:00 | -0.88703 | -31.10945 | 30015 ft | 209 kts | 199° |
| 2026-04-26 11:00 | -0.90043 | -31.11511 | 30015 ft | 209 kts | 198° |
| 2026-04-26 11:01 | -0.91386 | -31.12080 | 30011 ft | 209 kts | 200° |
| 2026-04-26 11:01 | -0.92731 | -31.12650 | 30012 ft | 210 kts | 198° |
| 2026-04-26 11:01 | -0.94075 | -31.13219 | 30014 ft | 210 kts | 199° |
| 2026-04-26 11:01 | -0.95418 | -31.13788 | 30016 ft | 210 kts | 199° |
| 2026-04-26 11:02 | -0.96761 | -31.14358 | 30011 ft | 210 kts | 199° |
| 2026-04-26 11:02 | -0.98104 | -31.14927 | 30014 ft | 210 kts | 199° |
| 2026-04-26 11:02 | -0.99445 | -31.15495 | 30014 ft | 209 kts | 199° |
| 2026-04-26 11:02 | -1.00784 | -31.16063 | 30014 ft | 209 kts | 199° |
| 2026-04-26 11:03 | -1.02122 | -31.16629 | 29957 ft | 207 kts | 198° |
| 2026-04-26 11:03 | -1.03425 | -31.17185 | 29561 ft | 206 kts | 199° |
| 2026-04-26 11:03 | -1.04750 | -31.17747 | 29113 ft | 207 kts | 198° |
| 2026-04-26 11:03 | -1.06080 | -31.18311 | 28609 ft | 208 kts | 198° |
| 2026-04-26 11:04 | -1.07415 | -31.18875 | 28124 ft | 208 kts | 198° |
| 2026-04-26 11:04 | -1.08747 | -31.19439 | 27637 ft | 208 kts | 200° |
| 2026-04-26 11:04 | -1.10081 | -31.20005 | 27178 ft | 208 kts | 198° |
| 2026-04-26 11:04 | -1.11412 | -31.20568 | 26796 ft | 205 kts | 200° |
| 2026-04-26 11:05 | -1.12722 | -31.21125 | 26388 ft | 204 kts | 199° |
| 2026-04-26 11:05 | -1.14010 | -31.21671 | 25989 ft | 203 kts | 198° |
| 2026-04-26 11:05 | -1.15316 | -31.22223 | 25570 ft | 203 kts | 200° |
| 2026-04-26 11:05 | -1.16607 | -31.22772 | 25209 ft | 201 kts | 199° |
| 2026-04-26 11:06 | -1.18004 | -31.23352 | 25028 ft | 225 kts | 199° |
| 2026-04-26 11:06 | -1.19399 | -31.23948 | 25015 ft | 223 kts | 198° |
| 2026-04-26 11:06 | -1.20883 | -31.24574 | 24987 ft | 228 kts | 200° |
| 2026-04-26 11:06 | -1.22345 | -31.25202 | 25011 ft | 237 kts | 198° |
| 2026-04-26 11:07 | -1.23937 | -31.25868 | 25019 ft | 258 kts | 201° |
| 2026-04-26 11:07 | -1.25650 | -31.26596 | 25017 ft | 274 kts | 201° |
| 2026-04-26 11:07 | -1.27439 | -31.27359 | 25014 ft | 284 kts | 201° |
| 2026-04-26 11:07 | -1.29263 | -31.28130 | 25010 ft | 292 kts | 200° |
| 2026-04-26 11:08 | -1.31147 | -31.28928 | 25009 ft | 295 kts | 201° |
| 2026-04-26 11:08 | -1.33040 | -31.29732 | 25007 ft | 296 kts | 201° |
| 2026-04-26 11:08 | -1.34941 | -31.30539 | 25007 ft | 297 kts | 201° |
| 2026-04-26 11:08 | -1.36845 | -31.31347 | 25008 ft | 298 kts | 200° |
| 2026-04-26 11:09 | -1.38760 | -31.32158 | 25009 ft | 298 kts | 200° |
| 2026-04-26 11:09 | -1.40673 | -31.32968 | 25009 ft | 299 kts | 200° |
| 2026-04-26 11:09 | -1.42587 | -31.33779 | 25009 ft | 299 kts | 200° |
| 2026-04-26 11:09 | -1.44500 | -31.34591 | 25008 ft | 298 kts | 201° |
| 2026-04-26 11:10 | -1.46412 | -31.35401 | 25004 ft | 298 kts | 200° |
| 2026-04-26 11:10 | -1.48321 | -31.36210 | 25005 ft | 298 kts | 200° |
| 2026-04-26 11:10 | -1.50231 | -31.37019 | 25005 ft | 299 kts | 200° |
| 2026-04-26 11:10 | -1.52148 | -31.37832 | 25006 ft | 299 kts | 199° |
| 2026-04-26 11:11 | -1.54059 | -31.38644 | 25009 ft | 297 kts | 201° |
| 2026-04-26 11:11 | -1.55933 | -31.39438 | 25008 ft | 296 kts | 200° |
| 2026-04-26 11:11 | -1.57839 | -31.40244 | 25008 ft | 297 kts | 201° |
| 2026-04-26 11:11 | -1.59747 | -31.41053 | 25008 ft | 299 kts | 201° |
| 2026-04-26 11:12 | -1.61659 | -31.41864 | 25008 ft | 298 kts | 201° |
| 2026-04-26 11:12 | -1.63568 | -31.42674 | 25006 ft | 297 kts | 201° |
| 2026-04-26 11:12 | -1.65469 | -31.43480 | 25007 ft | 296 kts | 202° |
| 2026-04-26 11:12 | -1.67366 | -31.44284 | 25007 ft | 295 kts | 202° |
| 2026-04-26 11:13 | -1.69257 | -31.45085 | 25005 ft | 295 kts | 201° |
| 2026-04-26 11:13 | -1.71149 | -31.45887 | 25006 ft | 296 kts | 201° |
| 2026-04-26 11:13 | -1.73042 | -31.46690 | 25006 ft | 296 kts | 201° |
| 2026-04-26 11:13 | -1.74936 | -31.47495 | 25007 ft | 295 kts | 201° |
| 2026-04-26 11:14 | -1.76828 | -31.48297 | 25011 ft | 295 kts | 201° |
| 2026-04-26 11:14 | -1.78695 | -31.49087 | 25007 ft | 295 kts | 201° |
| 2026-04-26 11:14 | -1.80595 | -31.49892 | 25007 ft | 297 kts | 201° |
| 2026-04-26 11:14 | -1.81878 | -31.50437 | 25008 ft | 296 kts | 202° |
| 2026-04-26 11:15 | -1.84402 | -31.51507 | 25009 ft | 296 kts | 202° |
| 2026-04-26 11:15 | -1.86299 | -31.52313 | 25009 ft | 296 kts | 202° |
| 2026-04-26 11:15 | -1.88197 | -31.53117 | 25009 ft | 296 kts | 202° |
| 2026-04-26 11:15 | -1.90092 | -31.53920 | 25008 ft | 296 kts | 201° |
| 2026-04-26 11:16 | -1.91963 | -31.54713 | 25009 ft | 295 kts | 202° |
| 2026-04-26 11:16 | -1.93850 | -31.55514 | 25009 ft | 295 kts | 202° |
| 2026-04-26 11:16 | -1.95734 | -31.56314 | 25007 ft | 294 kts | 202° |
| 2026-04-26 11:16 | -1.97621 | -31.57114 | 25006 ft | 295 kts | 201° |
| 2026-04-26 11:17 | -1.99515 | -31.57916 | 25006 ft | 296 kts | 201° |
| 2026-04-26 11:17 | -2.01411 | -31.58721 | 25007 ft | 296 kts | 201° |
| 2026-04-26 11:17 | -2.03308 | -31.59526 | 25006 ft | 295 kts | 201° |
| 2026-04-26 11:17 | -2.05198 | -31.60327 | 25007 ft | 295 kts | 202° |
| 2026-04-26 11:18 | -2.07088 | -31.61130 | 25003 ft | 295 kts | 202° |
| 2026-04-26 11:18 | -2.08982 | -31.61932 | 25004 ft | 296 kts | 201° |
| 2026-04-26 11:18 | -2.10877 | -31.62736 | 25003 ft | 296 kts | 201° |
| 2026-04-26 11:18 | -2.12771 | -31.63540 | 25003 ft | 295 kts | 202° |
| 2026-04-26 11:19 | -2.14664 | -31.64344 | 25005 ft | 295 kts | 202° |
| 2026-04-26 11:19 | -2.16557 | -31.65146 | 25006 ft | 296 kts | 202° |
| 2026-04-26 11:19 | -2.18452 | -31.65950 | 25007 ft | 296 kts | 201° |
| 2026-04-26 11:19 | -2.20346 | -31.66753 | 25007 ft | 296 kts | 202° |
| 2026-04-26 11:20 | -2.22215 | -31.67547 | 25008 ft | 295 kts | 202° |
| 2026-04-26 11:20 | -2.23492 | -31.68088 | 25007 ft | 295 kts | 201° |
| 2026-04-26 11:20 | -2.25997 | -31.69151 | 25007 ft | 295 kts | 202° |
| 2026-04-26 11:20 | -2.27889 | -31.69954 | 25002 ft | 295 kts | 201° |
| 2026-04-26 11:21 | -2.29782 | -31.70757 | 25003 ft | 295 kts | 200° |
| 2026-04-26 11:21 | -2.31677 | -31.71561 | 25003 ft | 296 kts | 201° |
| 2026-04-26 11:21 | -2.33575 | -31.72366 | 25003 ft | 295 kts | 201° |
| 2026-04-26 11:21 | -2.35468 | -31.73170 | 25003 ft | 295 kts | 201° |
| 2026-04-26 11:22 | -2.37329 | -31.73960 | 25003 ft | 295 kts | 200° |
| 2026-04-26 11:22 | -2.39220 | -31.74762 | 25004 ft | 295 kts | 200° |
| 2026-04-26 11:22 | -2.41112 | -31.75565 | 25004 ft | 296 kts | 200° |
| 2026-04-26 11:22 | -2.43005 | -31.76367 | 25005 ft | 295 kts | 201° |
| 2026-04-26 11:23 | -2.44905 | -31.77175 | 25003 ft | 295 kts | 201° |
| 2026-04-26 11:23 | -2.46795 | -31.77978 | 25004 ft | 295 kts | 201° |
| 2026-04-26 11:23 | -2.48686 | -31.78780 | 25004 ft | 296 kts | 202° |
| 2026-04-26 11:23 | -2.50582 | -31.79585 | 25005 ft | 297 kts | 201° |
| 2026-04-26 11:24 | -2.52481 | -31.80390 | 25009 ft | 295 kts | 201° |
| 2026-04-26 11:24 | -2.54362 | -31.81190 | 25008 ft | 292 kts | 201° |
| 2026-04-26 11:24 | -2.56203 | -31.81971 | 25005 ft | 290 kts | 201° |
| 2026-04-26 11:24 | -2.58064 | -31.82761 | 25003 ft | 290 kts | 201° |
| 2026-04-26 11:25 | -2.59926 | -31.83550 | 24999 ft | 291 kts | 202° |
| 2026-04-26 11:25 | -2.61803 | -31.84347 | 25000 ft | 293 kts | 202° |
| 2026-04-26 11:25 | -2.63686 | -31.85148 | 25001 ft | 295 kts | 202° |
| 2026-04-26 11:25 | -2.65581 | -31.85953 | 25009 ft | 295 kts | 202° |
| 2026-04-26 11:26 | -2.67475 | -31.86756 | 25010 ft | 296 kts | 202° |
| 2026-04-26 11:26 | -2.69372 | -31.87561 | 25011 ft | 296 kts | 202° |
| 2026-04-26 11:26 | -2.71266 | -31.88366 | 25011 ft | 296 kts | 202° |
| 2026-04-26 11:26 | -2.73136 | -31.89160 | 25011 ft | 296 kts | 202° |
| 2026-04-26 11:27 | -2.75029 | -31.89962 | 25006 ft | 295 kts | 201° |
| 2026-04-26 11:27 | -2.76929 | -31.90744 | 25005 ft | 294 kts | 202° |
| 2026-04-26 11:27 | -2.78817 | -31.91567 | 25005 ft | 295 kts | 203° |
| 2026-04-26 11:27 | -2.80699 | -31.92385 | 25006 ft | 295 kts | 202° |
| 2026-04-26 11:28 | -2.82570 | -31.93171 | 25009 ft | 295 kts | 201° |
| 2026-04-26 11:28 | -2.84466 | -31.93968 | 25009 ft | 295 kts | 202° |
| 2026-04-26 11:28 | -2.86356 | -31.94772 | 25009 ft | 295 kts | 202° |
| 2026-04-26 11:28 | -2.88249 | -31.95580 | 25010 ft | 295 kts | 202° |
| 2026-04-26 11:29 | -2.90143 | -31.96384 | 25010 ft | 295 kts | 202° |
| 2026-04-26 11:29 | -2.92039 | -31.97188 | 25009 ft | 296 kts | 201° |
| 2026-04-26 11:29 | -2.93950 | -31.97998 | 25008 ft | 298 kts | 202° |
| 2026-04-26 11:29 | -2.95838 | -31.98801 | 25009 ft | 299 kts | 202° |
| 2026-04-26 11:30 | -2.97749 | -31.99614 | 25012 ft | 299 kts | 202° |
| 2026-04-26 11:30 | -2.99044 | -32.00164 | 25012 ft | 299 kts | 201° |
| 2026-04-26 11:30 | -3.01575 | -32.01240 | 25012 ft | 298 kts | 201° |
| 2026-04-26 11:30 | -3.03486 | -32.02051 | 25012 ft | 299 kts | 201° |
| 2026-04-26 11:31 | -3.05405 | -32.02866 | 25016 ft | 299 kts | 201° |
| 2026-04-26 11:31 | -3.06671 | -32.03405 | 25017 ft | 299 kts | 202° |
| 2026-04-26 11:31 | -3.08585 | -32.04218 | 25017 ft | 298 kts | 201° |
| 2026-04-26 11:31 | -3.10493 | -32.05028 | 25016 ft | 298 kts | 202° |
| 2026-04-26 11:32 | -3.12399 | -32.05838 | 25009 ft | 297 kts | 202° |
| 2026-04-26 11:32 | -3.14924 | -32.06912 | 25008 ft | 297 kts | 202° |
| 2026-04-26 11:32 | -3.16210 | -32.07458 | 25009 ft | 298 kts | 202° |
| 2026-04-26 11:32 | -3.18111 | -32.08266 | 25009 ft | 296 kts | 202° |
| 2026-04-26 11:33 | -3.20009 | -32.09071 | 25008 ft | 296 kts | 201° |
| 2026-04-26 11:33 | -3.21889 | -32.09870 | 25009 ft | 297 kts | 201° |
| 2026-04-26 11:33 | -3.23798 | -32.10683 | 25003 ft | 298 kts | 201° |
| 2026-04-26 11:33 | -3.25706 | -32.11493 | 25000 ft | 298 kts | 201° |
| 2026-04-26 11:34 | -3.27543 | -32.12466 | 24995 ft | 300 kts | 213° |
| 2026-04-26 11:34 | -3.29163 | -32.13782 | 24997 ft | 300 kts | 219° |
| 2026-04-26 11:34 | -3.30720 | -32.15094 | 24358 ft | 293 kts | 218° |
| 2026-04-26 11:34 | -3.32283 | -32.16397 | 23799 ft | 287 kts | 218° |
| 2026-04-26 11:35 | -3.33799 | -32.17658 | 23002 ft | 287 kts | 218° |
| 2026-04-26 11:35 | -3.35331 | -32.18940 | 22148 ft | 287 kts | 219° |
| 2026-04-26 11:35 | -3.36864 | -32.20224 | 21301 ft | 287 kts | 218° |
| 2026-04-26 11:35 | -3.38398 | -32.21507 | 20426 ft | 287 kts | 218° |
| 2026-04-26 11:36 | -3.39932 | -32.22789 | 19567 ft | 287 kts | 218° |
| 2026-04-26 11:36 | -3.41467 | -32.24072 | 18720 ft | 286 kts | 218° |
| 2026-04-26 11:36 | -3.42997 | -32.25352 | 17782 ft | 286 kts | 219° |
| 2026-04-26 11:36 | -3.44519 | -32.26624 | 16728 ft | 285 kts | 218° |
| 2026-04-26 11:37 | -3.46040 | -32.27896 | 15676 ft | 285 kts | 219° |
| 2026-04-26 11:37 | -3.47561 | -32.29170 | 14671 ft | 284 kts | 218° |
| 2026-04-26 11:37 | -3.49057 | -32.30421 | 13618 ft | 283 kts | 219° |
| 2026-04-26 11:37 | -3.50573 | -32.31689 | 12407 ft | 284 kts | 218° |
| 2026-04-26 11:38 | -3.52096 | -32.32963 | 11151 ft | 287 kts | 218° |
| 2026-04-26 11:38 | -3.53589 | -32.34213 | 10575 ft | 266 kts | 219° |
| 2026-04-26 11:38 | -3.54955 | -32.35356 | 10002 ft | 249 kts | 218° |
| 2026-04-26 11:38 | -3.56289 | -32.36472 | 9033 ft | 251 kts | 218° |
| 2026-04-26 11:39 | -3.57622 | -32.37587 | 8316 ft | 257 kts | 218° |
| 2026-04-26 11:39 | -3.59007 | -32.38746 | 8059 ft | 257 kts | 218° |
| 2026-04-26 11:39 | -3.60355 | -32.39875 | 8062 ft | 251 kts | 218° |
| 2026-04-26 11:39 | -3.61693 | -32.40994 | 8064 ft | 251 kts | 218° |
| 2026-04-26 11:40 | -3.63014 | -32.42099 | 8065 ft | 250 kts | 218° |
| 2026-04-26 11:40 | -3.64351 | -32.43218 | 8064 ft | 250 kts | 218° |
| 2026-04-26 11:40 | -3.65687 | -32.44336 | 8064 ft | 250 kts | 218° |
| 2026-04-26 11:40 | -3.67023 | -32.45454 | 8064 ft | 250 kts | 218° |
| 2026-04-26 11:41 | -3.68358 | -32.46570 | 8062 ft | 250 kts | 218° |
| 2026-04-26 11:42 | -3.77528 | -32.54245 | 4577 ft | 245 kts | 218° |
| 2026-04-26 11:43 | -3.78833 | -32.55341 | 4050 ft | 246 kts | 218° |
| 2026-04-26 11:43 | -3.80167 | -32.56285 | 3820 ft | 226 kts | 202° |
| 2026-04-26 11:43 | -3.81709 | -32.56325 | 3275 ft | 235 kts | 162° |
| 2026-04-26 11:43 | -3.83158 | -32.55565 | 3061 ft | 235 kts | 143° |
| 2026-04-26 11:44 | -3.84228 | -32.54357 | 3042 ft | 231 kts | 123° |
| 2026-04-26 11:44 | -3.84768 | -32.52914 | 2030 ft | 229 kts | 99° |
| 2026-04-26 11:44 | -3.84823 | -32.51230 | 1549 ft | 243 kts | 92° |
| 2026-04-26 11:44 | -3.84866 | -32.49605 | 1550 ft | 214 kts | 95° |
| 2026-04-26 11:45 | -3.84972 | -32.48255 | 1547 ft | 165 kts | 98° |
| 2026-04-26 11:45 | -3.85058 | -32.47236 | 1541 ft | 133 kts | 98° |
| 2026-04-26 11:45 | -3.85124 | -32.46399 | 1541 ft | 112 kts | 98° |
| 2026-04-26 11:45 | -3.85184 | -32.45633 | 1542 ft | 111 kts | 98° |
| 2026-04-26 11:46 | -3.85242 | -32.44897 | 1313 ft | 106 kts | 100° |
| 2026-04-26 11:46 | -3.85294 | -32.44120 | 1155 ft | 125 kts | 91° |
| 2026-04-26 11:46 | -3.85380 | -32.43162 | 305 ft | 137 kts | 95° |
| 2026-04-26 11:46 | -3.85428 | -32.42414 | 189 ft | 77 kts | 98° |
| 2026-04-26 11:47 | -3.85460 | -32.42077 | 199 ft | 45 kts | 93° |
| 2026-04-26 11:47 | -3.85494 | -32.41725 | 199 ft | 55 kts | 91° |
| 2026-04-26 11:47 | -3.85470 | -32.41504 | 196 ft | 16 kts | 122° |
| 2026-04-26 11:47 | -3.85506 | -32.41615 | 194 ft | 26 kts | 267° |
| 2026-04-26 11:48 | -3.85495 | -32.41809 | 204 ft | 27 kts | 274° |
| 2026-04-26 11:48 | -3.85481 | -32.41984 | 206 ft | 38 kts | 274° |
| 2026-04-26 11:48 | -3.85449 | -32.42354 | 194 ft | 63 kts | 275° |
| 2026-04-26 11:48 | -3.85419 | -32.42677 | 181 ft | 25 kts | 273° |
| 2026-04-26 11:49 | -3.85499 | -32.42755 | 180 ft | 19 kts | 198° |
| 2026-04-26 11:49 | -3.85581 | -32.42766 | 182 ft | 7 kts | 177° |
| 2026-04-26 11:49 | -3.85604 | -32.42781 | 182 ft | 2 kts | 277° |
| 2026-04-26 11:49 | -3.85604 | -32.42785 | 182 ft | 0 kts | 277° |
| 2026-04-26 11:51 | -3.85604 | -32.42784 | 182 ft | 0 kts | 276° |